Observation data for Fort Lancaster on 04/09/2021      Previous  Date  Next       Current Mesonet Observations  Soil Data  Daily Summary Page  Observations in Plain Language
KLA1 090500Z 00000KT 17/M06 A2969 RMK A01 T01661061  RH  021%=      5-min Rain = 0
KLA1 090501Z 03000KT 17/M06 A2969 RMK A01 T01691061  RH  020%=      5-min Rain = 0
KLA1 090502Z 00000KT 17/M06 A2969 RMK A01 T01711061  RH  020%=      5-min Rain = 0
KLA1 090503Z 03001KT 17/M06 A2969 RMK A01 T01721061  RH  020%=      5-min Rain = 0
KLA1 090504Z 02003KT 17/M06 A2969 RMK A01 T01731060  RH  020%=      5-min Rain = 0
KLA1 090505Z 01004KT 17/M06 A2969 RMK A01 T01721060  RH  020%=      5-min Rain = 0
KLA1 090506Z 01003KT 17/M06 A2969 RMK A01 T01701060  RH  020%=      5-min Rain = 0
KLA1 090507Z 01003KT 17/M06 A2969 RMK A01 T01691060  RH  020%=      5-min Rain = 0
KLA1 090508Z 01003KT 17/M06 A2968 RMK A01 T01691062  RH  020%=      5-min Rain = 0
KLA1 090509Z 02003KT 17/M06 A2968 RMK A01 T01711063  RH  020%=      5-min Rain = 0
KLA1 090510Z 02003KT 18/M06 A2968 RMK A01 T01761064  RH  019%=      5-min Rain = 0
KLA1 090511Z 02003KT 18/M07 A2968 RMK A01 T01801065  RH  018%=      5-min Rain = 0
KLA1 090512Z 02003KT 18/M07 A2968 RMK A01 T01831066  RH  018%=      5-min Rain = 0
KLA1 090513Z 02003KT 18/M07 A2968 RMK A01 T01841065  RH  018%=      5-min Rain = 0
KLA1 090514Z 02002KT 18/M06 A2968 RMK A01 T01841063  RH  018%=      5-min Rain = 0
KLA1 090515Z 01002KT 18/M06 A2968 RMK A01 T01811060  RH  019%=      5-min Rain = 0
KLA1 090516Z 00002KT 18/M06 A2968 RMK A01 T01761059  RH  020%=      5-min Rain = 0
KLA1 090517Z 00001KT 17/M06 A2968 RMK A01 T01731057  RH  020%=      5-min Rain = 0
KLA1 090518Z 00001KT 17/M06 A2968 RMK A01 T01691058  RH  021%=      5-min Rain = 0
KLA1 090519Z 00000KT 17/M06 A2968 RMK A01 T01661057  RH  021%=      5-min Rain = 0
KLA1 090520Z 00000KT 16/M06 A2968 RMK A01 T01641059  RH  021%=      5-min Rain = 0
KLA1 090521Z 26003KT 16/M06 A2968 RMK A01 T01631060  RH  021%=      5-min Rain = 0
KLA1 090522Z 26003KT 16/M06 A2968 RMK A01 T01611057  RH  022%=      5-min Rain = 0
KLA1 090523Z 26002KT 16/M06 A2968 RMK A01 T01581056  RH  022%=      5-min Rain = 0
KLA1 090524Z 26002KT 16/M06 A2968 RMK A01 T01571057  RH  022%=      5-min Rain = 0
KLA1 090525Z 27002KT 16/M06 A2968 RMK A01 T01571058  RH  022%=      5-min Rain = 0
KLA1 090526Z 28002KT 16/M06 A2968 RMK A01 T01571059  RH  022%=      5-min Rain = 0
KLA1 090527Z 28001KT 16/M06 A2968 RMK A01 T01571061  RH  022%=      5-min Rain = 0
KLA1 090528Z 29000KT 16/M06 A2968 RMK A01 T01581060  RH  022%=      5-min Rain = 0
KLA1 090529Z 00000KT 16/M06 A2968 RMK A01 T01561057  RH  023%=      5-min Rain = 0
KLA1 090530Z 00000KT 15/M06 A2968 RMK A01 T01541056  RH  023%=      5-min Rain = 0
KLA1 090531Z 00000KT 15/M06 A2968 RMK A01 T01511056  RH  023%=      5-min Rain = 0
KLA1 090532Z 00000KT 15/M06 A2968 RMK A01 T01511058  RH  023%=      5-min Rain = 0
KLA1 090533Z 00000KT 16/M06 A2968 RMK A01 T01551059  RH  023%=      5-min Rain = 0
KLA1 090534Z 00000KT 16/M06 A2968 RMK A01 T01581059  RH  022%=      5-min Rain = 0
KLA1 090535Z 26001KT 16/M06 A2968 RMK A01 T01611059  RH  021%=      5-min Rain = 0
KLA1 090536Z 26002KT 16/M06 A2968 RMK A01 T01621059  RH  021%=      5-min Rain = 0
KLA1 090537Z 27002KT 16/M06 A2968 RMK A01 T01611058  RH  022%=      5-min Rain = 0
KLA1 090538Z 28000KT 16/M06 A2968 RMK A01 T01591058  RH  022%=      5-min Rain = 0
KLA1 090539Z 05000KT 16/M06 A2968 RMK A01 T01571058  RH  022%=      5-min Rain = 0
KLA1 090540Z 04002KT 16/M06 A2968 RMK A01 T01551059  RH  022%=      5-min Rain = 0
KLA1 090541Z 04001KT 15/M06 A2968 RMK A01 T01541057  RH  023%=      5-min Rain = 0
KLA1 090542Z 04001KT 15/M06 A2968 RMK A01 T01521056  RH  023%=      5-min Rain = 0
KLA1 090543Z 04002KT 15/M06 A2968 RMK A01 T01511056  RH  024%=      5-min Rain = 0
KLA1 090544Z 04002KT 15/M06 A2968 RMK A01 T01501056  RH  024%=      5-min Rain = 0
KLA1 090545Z 04002KT 15/M06 A2968 RMK A01 T01501057  RH  023%=      5-min Rain = 0
KLA1 090546Z 05002KT 15/M06 A2968 RMK A01 T01511055  RH  024%=      5-min Rain = 0
KLA1 090547Z 05001KT 15/M06 A2968 RMK A01 T01511055  RH  024%=      5-min Rain = 0
KLA1 090548Z 05001KT 15/M06 A2968 RMK A01 T01491055  RH  024%=      5-min Rain = 0
KLA1 090549Z 04001KT 15/M05 A2968 RMK A01 T01481054  RH  024%=      5-min Rain = 0
KLA1 090550Z 04001KT 15/M06 A2968 RMK A01 T01471055  RH  024%=      5-min Rain = 0
KLA1 090551Z 04000KT 15/M06 A2968 RMK A01 T01461055  RH  025%=      5-min Rain = 0
KLA1 090552Z 00000KT 14/M05 A2968 RMK A01 T01441054  RH  025%=      5-min Rain = 0
KLA1 090553Z 25001KT 14/M06 A2968 RMK A01 T01421056  RH  025%=      5-min Rain = 0
KLA1 090554Z 25000KT 14/M06 A2968 RMK A01 T01401057  RH  025%=      5-min Rain = 0
KLA1 090555Z 26000KT 14/M06 A2968 RMK A01 T01381058  RH  025%=      5-min Rain = 0
KLA1 090556Z 26002KT 14/M06 A2968 RMK A01 T01361058  RH  026%=      5-min Rain = 0
KLA1 090557Z 28002KT 14/M06 A2968 RMK A01 T01351058  RH  026%=      5-min Rain = 0
KLA1 090558Z 29002KT 13/M06 A2968 RMK A01 T01341059  RH  026%=      5-min Rain = 0
KLA1 090559Z 29002KT 13/M06 A2968 RMK A01 T01331059  RH  026%=      5-min Rain = 0
KLA1 090600Z 28002KT 13/M06 A2968 RMK A01 T01321059  RH  026%=      5-min Rain = 0
KLA1 090601Z 29002KT 13/M06 A2968 RMK A01 T01321060  RH  026%=      5-min Rain = 0
KLA1 090602Z 28002KT 13/M06 A2968 RMK A01 T01321060  RH  026%=      5-min Rain = 0
KLA1 090603Z 28002KT 13/M06 A2968 RMK A01 T01311060  RH  026%=      5-min Rain = 0
KLA1 090604Z 28002KT 13/M06 A2968 RMK A01 T01301061  RH  026%=      5-min Rain = 0
KLA1 090605Z 28002KT 13/M06 A2968 RMK A01 T01301060  RH  026%=      5-min Rain = 0
KLA1 090606Z 28001KT 13/M06 A2967 RMK A01 T01291060  RH  026%=      5-min Rain = 0
KLA1 090607Z 28001KT 13/M06 A2967 RMK A01 T01291060  RH  026%=      5-min Rain = 0
KLA1 090608Z 30001KT 13/M06 A2967 RMK A01 T01291060  RH  026%=      5-min Rain = 0
KLA1 090609Z 31000KT 13/M06 A2967 RMK A01 T01281059  RH  027%=      5-min Rain = 0
KLA1 090610Z 00000KT 13/M06 A2967 RMK A01 T01271058  RH  027%=      5-min Rain = 0
KLA1 090611Z 00000KT 13/M06 A2967 RMK A01 T01261056  RH  028%=      5-min Rain = 0
KLA1 090612Z 00000KT 13/M06 A2967 RMK A01 T01251056  RH  028%=      5-min Rain = 0
KLA1 090613Z 00000KT 13/M06 A2967 RMK A01 T01251055  RH  028%=      5-min Rain = 0
KLA1 090614Z 00000KT 13/M06 A2967 RMK A01 T01251055  RH  028%=      5-min Rain = 0
KLA1 090615Z 00000KT 13/M05 A2967 RMK A01 T01261053  RH  028%=      5-min Rain = 0
KLA1 090616Z 00000KT 13/M05 A2967 RMK A01 T01261054  RH  028%=      5-min Rain = 0
KLA1 090617Z 00000KT 13/M06 A2967 RMK A01 T01261056  RH  028%=      5-min Rain = 0
KLA1 090618Z 02000KT 13/M06 A2967 RMK A01 T01261056  RH  028%=      5-min Rain = 0
KLA1 090619Z 03001KT 13/M06 A2967 RMK A01 T01261056  RH  028%=      5-min Rain = 0
KLA1 090620Z 03002KT 13/M05 A2967 RMK A01 T01261054  RH  028%=      5-min Rain = 0
KLA1 090621Z 04002KT 13/M05 A2967 RMK A01 T01261053  RH  028%=      5-min Rain = 0
KLA1 090622Z 04002KT 13/M05 A2967 RMK A01 T01271052  RH  028%=      5-min Rain = 0
KLA1 090623Z 03003KT 13/M05 A2967 RMK A01 T01301052  RH  028%=      5-min Rain = 0
KLA1 090624Z 03004KT 13/M05 A2967 RMK A01 T01321052  RH  027%=      5-min Rain = 0
KLA1 090625Z 02003KT 13/M05 A2967 RMK A01 T01331052  RH  027%=      5-min Rain = 0
KLA1 090626Z 02003KT 14/M05 A2967 RMK A01 T01351052  RH  027%=      5-min Rain = 0
KLA1 090627Z 02003KT 14/M05 A2967 RMK A01 T01371053  RH  026%=      5-min Rain = 0
KLA1 090628Z 02001KT 14/M06 A2967 RMK A01 T01401055  RH  025%=      5-min Rain = 0
KLA1 090629Z 01000KT 14/M06 A2967 RMK A01 T01431057  RH  025%=      5-min Rain = 0
KLA1 090630Z 36000KT 15/M06 A2967 RMK A01 T01461058  RH  024%=      5-min Rain = 0
KLA1 090631Z 00000KT 15/M06 A2967 RMK A01 T01501058  RH  023%=      5-min Rain = 0
KLA1 090632Z 00000KT 15/M06 A2967 RMK A01 T01521058  RH  023%=      5-min Rain = 0
KLA1 090633Z 00000KT 15/M06 A2967 RMK A01 T01531058  RH  023%=      5-min Rain = 0
KLA1 090634Z 00000KT 15/M06 A2967 RMK A01 T01531058  RH  023%=      5-min Rain = 0
KLA1 090635Z 00000KT 15/M06 A2967 RMK A01 T01531055  RH  023%=      5-min Rain = 0
KLA1 090636Z 00000KT 15/M06 A2967 RMK A01 T01501055  RH  024%=      5-min Rain = 0
KLA1 090637Z 00000KT 15/M05 A2967 RMK A01 T01461054  RH  025%=      5-min Rain = 0
KLA1 090638Z 00000KT 14/M06 A2967 RMK A01 T01421055  RH  025%=      5-min Rain = 0
KLA1 090639Z 00000KT 14/M05 A2967 RMK A01 T01391052  RH  026%=      5-min Rain = 0
KLA1 090640Z 00000KT 14/M05 A2967 RMK A01 T01371053  RH  026%=      5-min Rain = 0
KLA1 090641Z 00000KT 14/M06 A2967 RMK A01 T01361055  RH  026%=      5-min Rain = 0
KLA1 090642Z 00000KT 13/M06 A2967 RMK A01 T01341055  RH  026%=      5-min Rain = 0
KLA1 090643Z 00000KT 13/M05 A2967 RMK A01 T01341054  RH  027%=      5-min Rain = 0
KLA1 090644Z 00000KT 13/M05 A2967 RMK A01 T01331053  RH  027%=      5-min Rain = 0
KLA1 090645Z 00000KT 13/M05 A2967 RMK A01 T01331050  RH  028%=      5-min Rain = 0
KLA1 090646Z 10000KT 13/M05 A2967 RMK A01 T01321048  RH  028%=      5-min Rain = 0
KLA1 090647Z 10001KT 13/M05 A2967 RMK A01 T01321047  RH  028%=      5-min Rain = 0
KLA1 090648Z 10001KT 13/M05 A2967 RMK A01 T01321048  RH  028%=      5-min Rain = 0
KLA1 090649Z 11001KT 13/M05 A2967 RMK A01 T01311050  RH  028%=      5-min Rain = 0
KLA1 090650Z 11001KT 13/M05 A2967 RMK A01 T01311051  RH  028%=      5-min Rain = 0
KLA1 090651Z 11001KT 13/M05 A2967 RMK A01 T01331053  RH  027%=      5-min Rain = 0
KLA1 090652Z 11001KT 14/M05 A2967 RMK A01 T01351054  RH  026%=      5-min Rain = 0
KLA1 090653Z 12001KT 14/M06 A2967 RMK A01 T01361055  RH  026%=      5-min Rain = 0
KLA1 090654Z 10001KT 14/M06 A2967 RMK A01 T01391057  RH  025%=      5-min Rain = 0
KLA1 090655Z 09000KT 14/M06 A2967 RMK A01 T01411057  RH  025%=      5-min Rain = 0
KLA1 090656Z 00000KT 14/M06 A2967 RMK A01 T01421055  RH  025%=      5-min Rain = 0
KLA1 090657Z 00000KT 14/M05 A2967 RMK A01 T01421054  RH  025%=      5-min Rain = 0
KLA1 090658Z 00000KT 14/M05 A2967 RMK A01 T01421053  RH  026%=      5-min Rain = 0
KLA1 090659Z 35001KT 14/M05 A2967 RMK A01 T01391052  RH  026%=      5-min Rain = 0
KLA1 090700Z 01001KT 14/M05 A2967 RMK A01 T01361051  RH  027%=      5-min Rain = 0
KLA1 090701Z 02001KT 13/M05 A2967 RMK A01 T01331051  RH  027%=      5-min Rain = 0
KLA1 090702Z 00000KT 13/M05 A2967 RMK A01 T01301051  RH  028%=      5-min Rain = 0
KLA1 090703Z 00000KT 13/M05 A2967 RMK A01 T01281049  RH  029%=      5-min Rain = 0
KLA1 090704Z 00000KT 13/M05 A2967 RMK A01 T01261049  RH  029%=      5-min Rain = 0
KLA1 090705Z 00000KT 12/M05 A2966 RMK A01 T01231049  RH  030%=      5-min Rain = 0
KLA1 090706Z 00000KT 12/M05 A2966 RMK A01 T01221049  RH  030%=      5-min Rain = 0
KLA1 090707Z 00000KT 12/M05 A2966 RMK A01 T01211049  RH  030%=      5-min Rain = 0
KLA1 090708Z 00000KT 12/M05 A2966 RMK A01 T01211050  RH  030%=      5-min Rain = 0
KLA1 090709Z 00000KT 12/M05 A2966 RMK A01 T01211051  RH  030%=      5-min Rain = 0
KLA1 090710Z 00000KT 12/M05 A2966 RMK A01 T01211054  RH  029%=      5-min Rain = 0
KLA1 090711Z 00000KT 12/M06 A2966 RMK A01 T01221055  RH  029%=      5-min Rain = 0
KLA1 090712Z 27001KT 12/M05 A2967 RMK A01 T01241052  RH  029%=      5-min Rain = 0
KLA1 090713Z 27001KT 13/M05 A2967 RMK A01 T01251051  RH  029%=      5-min Rain = 0
KLA1 090714Z 27001KT 13/M05 A2966 RMK A01 T01261051  RH  029%=      5-min Rain = 0
KLA1 090715Z 27000KT 13/M05 A2966 RMK A01 T01261049  RH  029%=      5-min Rain = 0
KLA1 090716Z 28000KT 13/M05 A2966 RMK A01 T01261054  RH  028%=      5-min Rain = 0
KLA1 090717Z 27002KT 13/M06 A2966 RMK A01 T01291059  RH  027%=      5-min Rain = 0
KLA1 090718Z 28003KT 13/M06 A2966 RMK A01 T01331060  RH  026%=      5-min Rain = 0
KLA1 090719Z 28003KT 14/M06 A2966 RMK A01 T01361061  RH  025%=      5-min Rain = 0
KLA1 090720Z 28004KT 14/M06 A2966 RMK A01 T01381062  RH  024%=      5-min Rain = 0
KLA1 090721Z 29003KT 14/M06 A2966 RMK A01 T01401063  RH  024%=      5-min Rain = 0
KLA1 090722Z 30003KT 14/M06 A2966 RMK A01 T01411062  RH  024%=      5-min Rain = 0
KLA1 090723Z 30002KT 14/M06 A2966 RMK A01 T01411061  RH  024%=      5-min Rain = 0
KLA1 090724Z 31002KT 14/M06 A2966 RMK A01 T01401061  RH  024%=      5-min Rain = 0
KLA1 090725Z 31002KT 14/M06 A2966 RMK A01 T01391060  RH  025%=      5-min Rain = 0
KLA1 090726Z 32002KT 14/M05 A2966 RMK A01 T01361053  RH  026%=      5-min Rain = 0
KLA1 090727Z 30002KT 13/M06 A2966 RMK A01 T01321055  RH  027%=      5-min Rain = 0
KLA1 090728Z 29002KT 13/M06 A2966 RMK A01 T01331057  RH  026%=      5-min Rain = 0
KLA1 090729Z 28002KT 13/M06 A2966 RMK A01 T01341057  RH  026%=      5-min Rain = 0
KLA1 090730Z 29001KT 13/M06 A2966 RMK A01 T01341057  RH  026%=      5-min Rain = 0
KLA1 090731Z 30001KT 13/M06 A2966 RMK A01 T01341059  RH  026%=      5-min Rain = 0
KLA1 090732Z 29001KT 14/M06 A2966 RMK A01 T01351058  RH  026%=      5-min Rain = 0
KLA1 090733Z 29001KT 14/M05 A2966 RMK A01 T01351054  RH  027%=      5-min Rain = 0
KLA1 090734Z 29001KT 13/M05 A2966 RMK A01 T01331053  RH  027%=      5-min Rain = 0
KLA1 090735Z 30001KT 13/M05 A2966 RMK A01 T01301052  RH  028%=      5-min Rain = 0
KLA1 090736Z 30000KT 13/M05 A2966 RMK A01 T01271051  RH  029%=      5-min Rain = 0
KLA1 090737Z 29001KT 13/M05 A2966 RMK A01 T01251051  RH  029%=      5-min Rain = 0
KLA1 090738Z 27000KT 12/M05 A2966 RMK A01 T01231050  RH  030%=      5-min Rain = 0
KLA1 090739Z 26001KT 12/M05 A2966 RMK A01 T01221051  RH  029%=      5-min Rain = 0
KLA1 090740Z 26000KT 12/M05 A2966 RMK A01 T01221053  RH  029%=      5-min Rain = 0
KLA1 090741Z 00000KT 12/M05 A2966 RMK A01 T01231053  RH  029%=      5-min Rain = 0
KLA1 090742Z 00000KT 12/M05 A2966 RMK A01 T01241054  RH  028%=      5-min Rain = 0
KLA1 090743Z 00000KT 13/M05 A2966 RMK A01 T01251053  RH  029%=      5-min Rain = 0
KLA1 090744Z 00000KT 12/M05 A2966 RMK A01 T01241050  RH  029%=      5-min Rain = 0
KLA1 090745Z 00000KT 12/M05 A2965 RMK A01 T01221048  RH  030%=      5-min Rain = 0
KLA1 090746Z 00000KT 12/M05 A2966 RMK A01 T01201051  RH  030%=      5-min Rain = 0
KLA1 090747Z 28000KT 12/M06 A2966 RMK A01 T01201055  RH  029%=      5-min Rain = 0
KLA1 090748Z 28002KT 12/M06 A2966 RMK A01 T01221058  RH  028%=      5-min Rain = 0
KLA1 090749Z 27002KT 13/M06 A2966 RMK A01 T01251058  RH  027%=      5-min Rain = 0
KLA1 090750Z 27002KT 13/M06 A2966 RMK A01 T01271056  RH  028%=      5-min Rain = 0
KLA1 090751Z 28001KT 13/M06 A2966 RMK A01 T01271058  RH  027%=      5-min Rain = 0
KLA1 090752Z 28000KT 13/M06 A2966 RMK A01 T01271058  RH  027%=      5-min Rain = 0
KLA1 090753Z 00000KT 13/M06 A2966 RMK A01 T01281057  RH  027%=      5-min Rain = 0
KLA1 090754Z 12000KT 13/M05 A2966 RMK A01 T01261054  RH  028%=      5-min Rain = 0
KLA1 090755Z 09001KT 12/M05 A2966 RMK A01 T01231054  RH  029%=      5-min Rain = 0
KLA1 090756Z 08002KT 12/M05 A2965 RMK A01 T01211053  RH  029%=      5-min Rain = 0
KLA1 090757Z 08002KT 12/M05 A2966 RMK A01 T01191053  RH  030%=      5-min Rain = 0
KLA1 090758Z 08002KT 12/M05 A2966 RMK A01 T01181052  RH  030%=      5-min Rain = 0
KLA1 090759Z 08001KT 12/M05 A2966 RMK A01 T01181053  RH  030%=      5-min Rain = 0
KLA1 090800Z 06001KT 12/M06 A2966 RMK A01 T01201055  RH  029%=      5-min Rain = 0
KLA1 090801Z 06001KT 12/M06 A2965 RMK A01 T01241055  RH  028%=      5-min Rain = 0
KLA1 090802Z 05002KT 13/M06 A2965 RMK A01 T01281055  RH  027%=      5-min Rain = 0
KLA1 090803Z 05002KT 13/M06 A2965 RMK A01 T01311056  RH  027%=      5-min Rain = 0
KLA1 090804Z 06002KT 13/M06 A2965 RMK A01 T01341057  RH  026%=      5-min Rain = 0
KLA1 090805Z 06001KT 14/M06 A2965 RMK A01 T01371056  RH  026%=      5-min Rain = 0
KLA1 090806Z 06001KT 14/M06 A2965 RMK A01 T01371056  RH  026%=      5-min Rain = 0
KLA1 090807Z 07001KT 13/M06 A2965 RMK A01 T01341056  RH  026%=      5-min Rain = 0
KLA1 090808Z 07000KT 13/M06 A2965 RMK A01 T01311056  RH  027%=      5-min Rain = 0
KLA1 090809Z 00000KT 13/M05 A2965 RMK A01 T01291054  RH  027%=      5-min Rain = 0
KLA1 090810Z 28001KT 13/M05 A2965 RMK A01 T01271053  RH  028%=      5-min Rain = 0
KLA1 090811Z 29005KT 13/M05 A2965 RMK A01 T01261052  RH  028%=      5-min Rain = 0
KLA1 090812Z 29007KT 13/M05 A2965 RMK A01 T01251053  RH  028%=      5-min Rain = 0
KLA1 090813Z 29006KT 13/M06 A2965 RMK A01 T01261055  RH  028%=      5-min Rain = 0
KLA1 090814Z 29004KT 13/M06 A2965 RMK A01 T01281057  RH  027%=      5-min Rain = 0
KLA1 090815Z 31002KT 13/M06 A2965 RMK A01 T01311058  RH  026%=      5-min Rain = 0
KLA1 090816Z 06001KT 13/M06 A2965 RMK A01 T01321058  RH  026%=      5-min Rain = 0
KLA1 090817Z 09001KT 13/M06 A2965 RMK A01 T01311056  RH  027%=      5-min Rain = 0
KLA1 090818Z 09001KT 13/M06 A2965 RMK A01 T01271057  RH  027%=      5-min Rain = 0
KLA1 090819Z 09002KT 12/M06 A2965 RMK A01 T01231056  RH  028%=      5-min Rain = 0
KLA1 090820Z 11001KT 12/M06 A2965 RMK A01 T01211055  RH  029%=      5-min Rain = 0
KLA1 090821Z 11000KT 12/M05 A2965 RMK A01 T01201054  RH  029%=      5-min Rain = 0
KLA1 090822Z 00000KT 12/M06 A2965 RMK A01 T01201055  RH  029%=      5-min Rain = 0
KLA1 090823Z 00000KT 12/M06 A2965 RMK A01 T01211056  RH  029%=      5-min Rain = 0
KLA1 090824Z 18000KT 12/M06 A2965 RMK A01 T01221056  RH  028%=      5-min Rain = 0
KLA1 090825Z 20001KT 12/M06 A2965 RMK A01 T01221057  RH  028%=      5-min Rain = 0
KLA1 090826Z 21001KT 12/M06 A2965 RMK A01 T01241056  RH  028%=      5-min Rain = 0
KLA1 090827Z 22001KT 12/M06 A2965 RMK A01 T01241056  RH  028%=      5-min Rain = 0
KLA1 090828Z 26002KT 12/M05 A2965 RMK A01 T01241054  RH  028%=      5-min Rain = 0
KLA1 090829Z 28004KT 12/M05 A2965 RMK A01 T01241054  RH  028%=      5-min Rain = 0
KLA1 090830Z 27002KT 12/M05 A2965 RMK A01 T01241054  RH  029%=      5-min Rain = 0
KLA1 090831Z 00000KT 12/M05 A2965 RMK A01 T01241054  RH  029%=      5-min Rain = 0
KLA1 090832Z 11001KT 12/M05 A2965 RMK A01 T01241054  RH  029%=      5-min Rain = 0
KLA1 090833Z 11002KT 12/M06 A2965 RMK A01 T01231055  RH  028%=      5-min Rain = 0
KLA1 090834Z 08002KT 12/M06 A2965 RMK A01 T01221056  RH  028%=      5-min Rain = 0
KLA1 090835Z 05002KT 12/M06 A2964 RMK A01 T01211056  RH  029%=      5-min Rain = 0
KLA1 090836Z 04002KT 12/M06 A2964 RMK A01 T01201056  RH  029%=      5-min Rain = 0
KLA1 090837Z 02001KT 12/M06 A2965 RMK A01 T01211056  RH  029%=      5-min Rain = 0
KLA1 090838Z 36001KT 12/M06 A2965 RMK A01 T01221057  RH  028%=      5-min Rain = 0
KLA1 090839Z 33000KT 12/M06 A2965 RMK A01 T01241057  RH  028%=      5-min Rain = 0
KLA1 090840Z 02000KT 13/M06 A2965 RMK A01 T01251056  RH  028%=      5-min Rain = 0
KLA1 090841Z 13001KT 13/M06 A2965 RMK A01 T01261055  RH  028%=      5-min Rain = 0
KLA1 090842Z 12002KT 12/M06 A2965 RMK A01 T01241056  RH  028%=      5-min Rain = 0
KLA1 090843Z 10002KT 12/M06 A2965 RMK A01 T01231056  RH  028%=      5-min Rain = 0
KLA1 090844Z 10001KT 12/M06 A2965 RMK A01 T01191056  RH  029%=      5-min Rain = 0
KLA1 090845Z 29001KT 12/M06 A2965 RMK A01 T01171056  RH  029%=      5-min Rain = 0
KLA1 090846Z 27003KT 12/M06 A2965 RMK A01 T01161055  RH  030%=      5-min Rain = 0
KLA1 090847Z 26002KT 12/M06 A2965 RMK A01 T01151056  RH  030%=      5-min Rain = 0
KLA1 090848Z 25001KT 11/M06 A2965 RMK A01 T01141056  RH  030%=      5-min Rain = 0
KLA1 090849Z 24001KT 11/M06 A2965 RMK A01 T01131056  RH  030%=      5-min Rain = 0
KLA1 090850Z 22000KT 11/M06 A2965 RMK A01 T01121056  RH  030%=      5-min Rain = 0
KLA1 090851Z 27001KT 11/M06 A2965 RMK A01 T01101057  RH  031%=      5-min Rain = 0
KLA1 090852Z 27002KT 11/M06 A2965 RMK A01 T01081056  RH  031%=      5-min Rain = 0
KLA1 090853Z 29000KT 11/M06 A2965 RMK A01 T01081056  RH  031%=      5-min Rain = 0
KLA1 090854Z 00000KT 11/M06 A2965 RMK A01 T01071057  RH  031%=      5-min Rain = 0
KLA1 090855Z 00000KT 11/M06 A2965 RMK A01 T01071056  RH  031%=      5-min Rain = 0
KLA1 090856Z 00000KT 11/M06 A2965 RMK A01 T01071056  RH  031%=      5-min Rain = 0
KLA1 090857Z 00000KT 11/M06 A2965 RMK A01 T01071055  RH  031%=      5-min Rain = 0
KLA1 090858Z 00000KT 11/M06 A2965 RMK A01 T01071055  RH  032%=      5-min Rain = 0
KLA1 090859Z 27000KT 11/M05 A2965 RMK A01 T01071054  RH  032%=      5-min Rain = 0
KLA1 090900Z 26001KT 11/M05 A2965 RMK A01 T01071053  RH  032%=      5-min Rain = 0
KLA1 090901Z 27001KT 11/M05 A2965 RMK A01 T01071052  RH  032%=      5-min Rain = 0
KLA1 090902Z 29004KT 11/M05 A2965 RMK A01 T01071053  RH  032%=      5-min Rain = 0
KLA1 090903Z 30004KT 11/M06 A2965 RMK A01 T01081055  RH  031%=      5-min Rain = 0
KLA1 090904Z 30002KT 11/M05 A2965 RMK A01 T01091053  RH  032%=      5-min Rain = 0
KLA1 090905Z 31002KT 11/M05 A2965 RMK A01 T01101054  RH  031%=      5-min Rain = 0
KLA1 090906Z 31003KT 11/M05 A2965 RMK A01 T01101054  RH  031%=      5-min Rain = 0
KLA1 090907Z 00002KT 11/M05 A2965 RMK A01 T01101053  RH  031%=      5-min Rain = 0
KLA1 090908Z 35002KT 11/M05 A2965 RMK A01 T01091053  RH  032%=      5-min Rain = 0
KLA1 090909Z 32001KT 11/M05 A2965 RMK A01 T01071053  RH  032%=      5-min Rain = 0
KLA1 090910Z 35001KT 11/M05 A2965 RMK A01 T01071053  RH  032%=      5-min Rain = 0
KLA1 090911Z 36001KT 11/M05 A2965 RMK A01 T01061054  RH  032%=      5-min Rain = 0
KLA1 090912Z 28001KT 11/M05 A2965 RMK A01 T01071054  RH  032%=      5-min Rain = 0
KLA1 090913Z 05000KT 11/M05 A2965 RMK A01 T01091053  RH  032%=      5-min Rain = 0
KLA1 090914Z 05001KT 11/M06 A2965 RMK A01 T01141056  RH  030%=      5-min Rain = 0
KLA1 090915Z 07002KT 12/M06 A2965 RMK A01 T01191055  RH  029%=      5-min Rain = 0
KLA1 090916Z 07000KT 12/M05 A2965 RMK A01 T01201054  RH  029%=      5-min Rain = 0
KLA1 090917Z 30001KT 12/M06 A2965 RMK A01 T01201055  RH  029%=      5-min Rain = 0
KLA1 090918Z 32002KT 12/M06 A2965 RMK A01 T01221058  RH  028%=      5-min Rain = 0
KLA1 090919Z 31002KT 13/M06 A2965 RMK A01 T01261059  RH  027%=      5-min Rain = 0
KLA1 090920Z 28004KT 13/M06 A2966 RMK A01 T01291057  RH  027%=      5-min Rain = 0
KLA1 090921Z 28005KT 13/M06 A2966 RMK A01 T01291056  RH  027%=      5-min Rain = 0
KLA1 090922Z 28004KT 13/M06 A2966 RMK A01 T01281055  RH  027%=      5-min Rain = 0
KLA1 090923Z 28005KT 13/M05 A2966 RMK A01 T01281054  RH  028%=      5-min Rain = 0
KLA1 090924Z 29005KT 13/M05 A2966 RMK A01 T01281054  RH  028%=      5-min Rain = 0
KLA1 090925Z 30004KT 13/M05 A2966 RMK A01 T01281053  RH  028%=      5-min Rain = 0
KLA1 090926Z 31003KT 13/M05 A2966 RMK A01 T01281053  RH  028%=      5-min Rain = 0
KLA1 090927Z 31004KT 13/M05 A2966 RMK A01 T01271053  RH  028%=      5-min Rain = 0
KLA1 090928Z 30005KT 13/M05 A2966 RMK A01 T01281054  RH  028%=      5-min Rain = 0
KLA1 090929Z 30005KT 13/M06 A2966 RMK A01 T01281056  RH  027%=      5-min Rain = 0
KLA1 090930Z 29005KT 13/M06 A2966 RMK A01 T01301056  RH  027%=      5-min Rain = 0
KLA1 090931Z 29004KT 13/M06 A2966 RMK A01 T01301055  RH  027%=      5-min Rain = 0
KLA1 090932Z 29003KT 13/M06 A2966 RMK A01 T01311055  RH  027%=      5-min Rain = 0
KLA1 090933Z 35001KT 13/M06 A2966 RMK A01 T01311055  RH  027%=      5-min Rain = 0
KLA1 090934Z 33001KT 13/M06 A2966 RMK A01 T01311055  RH  027%=      5-min Rain = 0
KLA1 090935Z 32002KT 13/M06 A2966 RMK A01 T01301056  RH  027%=      5-min Rain = 0
KLA1 090936Z 31003KT 13/M06 A2967 RMK A01 T01301057  RH  027%=      5-min Rain = 0
KLA1 090937Z 29005KT 13/M06 A2967 RMK A01 T01311057  RH  027%=      5-min Rain = 0
KLA1 090938Z 29007KT 13/M06 A2968 RMK A01 T01311057  RH  027%=      5-min Rain = 0
KLA1 090939Z 29007KT 13/M06 A2968 RMK A01 T01321056  RH  027%=      5-min Rain = 0
KLA1 090940Z 30007KT 13/M06 A2968 RMK A01 T01321055  RH  027%=      5-min Rain = 0
KLA1 090941Z 30007KT 13/M05 A2968 RMK A01 T01311054  RH  027%=      5-min Rain = 0
KLA1 090942Z 30005KT 13/M05 A2968 RMK A01 T01291053  RH  028%=      5-min Rain = 0
KLA1 090943Z 29005KT 13/M05 A2968 RMK A01 T01271053  RH  028%=      5-min Rain = 0
KLA1 090944Z 29004KT 13/M06 A2968 RMK A01 T01261055  RH  028%=      5-min Rain = 0
KLA1 090945Z 33003KT 13/M06 A2968 RMK A01 T01271056  RH  027%=      5-min Rain = 0
KLA1 090946Z 01003KT 13/M06 A2967 RMK A01 T01281057  RH  027%=      5-min Rain = 0
KLA1 090947Z 03003KT 13/M06 A2967 RMK A01 T01291056  RH  027%=      5-min Rain = 0
KLA1 090948Z 01001KT 13/M06 A2968 RMK A01 T01291057  RH  027%=      5-min Rain = 0
KLA1 090949Z 00002KT 13/M06 A2968 RMK A01 T01301057  RH  027%=      5-min Rain = 0
KLA1 090950Z 01003KT 13/M06 A2968 RMK A01 T01301057  RH  027%=      5-min Rain = 0
KLA1 090951Z 01004KT 13/M06 A2967 RMK A01 T01301056  RH  027%=      5-min Rain = 0
KLA1 090952Z 34004KT 13/M06 A2968 RMK A01 T01311057  RH  026%=      5-min Rain = 0
KLA1 090953Z 35003KT 13/M06 A2968 RMK A01 T01341058  RH  026%=      5-min Rain = 0
KLA1 090954Z 02004KT 14/M06 A2968 RMK A01 T01351056  RH  026%=      5-min Rain = 0
KLA1 090955Z 01004KT 13/M06 A2968 RMK A01 T01341056  RH  026%=      5-min Rain = 0
KLA1 090956Z 36004KT 13/M06 A2968 RMK A01 T01331056  RH  026%=      5-min Rain = 0
KLA1 090957Z 02004KT 13/M06 A2968 RMK A01 T01331056  RH  026%=      5-min Rain = 0
KLA1 090958Z 04005KT 13/M06 A2968 RMK A01 T01321055  RH  027%=      5-min Rain = 0
KLA1 090959Z 02004KT 13/M06 A2968 RMK A01 T01311055  RH  027%=      5-min Rain = 0
KLA1 091000Z 00005KT 13/M06 A2968 RMK A01 T01301055  RH  027%=      5-min Rain = 0
KLA1 091001Z 36004KT 13/M05 A2968 RMK A01 T01291054  RH  028%=      5-min Rain = 0
KLA1 091002Z 35003KT 13/M06 A2968 RMK A01 T01291056  RH  027%=      5-min Rain = 0
KLA1 091003Z 34004KT 14/M06 A2968 RMK A01 T01351057  RH  026%=      5-min Rain = 0
KLA1 091004Z 33003KT 14/M06 A2968 RMK A01 T01411057  RH  025%=      5-min Rain = 0
KLA1 091005Z 32002KT 14/M06 A2968 RMK A01 T01441058  RH  024%=      5-min Rain = 0
KLA1 091006Z 36003KT 15/M06 A2968 RMK A01 T01461059  RH  024%=      5-min Rain = 0
KLA1 091007Z 03004KT 15/M06 A2968 RMK A01 T01471058  RH  024%=      5-min Rain = 0
KLA1 091008Z 05004KT 15/M06 A2968 RMK A01 T01461055  RH  024%=      5-min Rain = 0
KLA1 091009Z 04003KT 14/M06 A2968 RMK A01 T01421055  RH  025%=      5-min Rain = 0
KLA1 091010Z 04003KT 14/M06 A2968 RMK A01 T01381055  RH  026%=      5-min Rain = 0
KLA1 091011Z 02003KT 14/M06 A2968 RMK A01 T01351055  RH  026%=      5-min Rain = 0
KLA1 091012Z 00003KT 13/M06 A2968 RMK A01 T01341055  RH  026%=      5-min Rain = 0
KLA1 091013Z 03002KT 14/M05 A2968 RMK A01 T01371054  RH  026%=      5-min Rain = 0
KLA1 091014Z 08003KT 14/M05 A2967 RMK A01 T01411054  RH  025%=      5-min Rain = 0
KLA1 091015Z 08003KT 14/M05 A2967 RMK A01 T01431054  RH  025%=      5-min Rain = 0
KLA1 091016Z 04005KT 14/M06 A2967 RMK A01 T01431055  RH  025%=      5-min Rain = 0
KLA1 091017Z 01005KT 14/M05 A2967 RMK A01 T01401054  RH  026%=      5-min Rain = 0
KLA1 091018Z 00005KT 14/M05 A2967 RMK A01 T01371054  RH  026%=      5-min Rain = 0
KLA1 091019Z 01003KT 14/M05 A2967 RMK A01 T01361053  RH  027%=      5-min Rain = 0
KLA1 091020Z 03003KT 14/M05 A2967 RMK A01 T01371053  RH  026%=      5-min Rain = 0
KLA1 091021Z 03002KT 14/M05 A2967 RMK A01 T01421053  RH  026%=      5-min Rain = 0
KLA1 091022Z 03003KT 15/M05 A2967 RMK A01 T01471052  RH  025%=      5-min Rain = 0
KLA1 091023Z 02004KT 15/M05 A2967 RMK A01 T01501053  RH  024%=      5-min Rain = 0
KLA1 091024Z 02005KT 15/M05 A2967 RMK A01 T01531054  RH  024%=      5-min Rain = 0
KLA1 091025Z 03004KT 15/M05 A2967 RMK A01 T01541052  RH  024%=      5-min Rain = 0
KLA1 091026Z 04003KT 15/M05 A2967 RMK A01 T01521051  RH  024%=      5-min Rain = 0
KLA1 091027Z 04002KT 15/M05 A2967 RMK A01 T01481051  RH  025%=      5-min Rain = 0
KLA1 091028Z 06003KT 15/M05 A2967 RMK A01 T01451051  RH  025%=      5-min Rain = 0
KLA1 091029Z 08003KT 14/M05 A2966 RMK A01 T01431052  RH  025%=      5-min Rain = 0
KLA1 091030Z 04004KT 14/M05 A2967 RMK A01 T01441053  RH  025%=      5-min Rain = 0
KLA1 091031Z 03003KT 15/M06 A2967 RMK A01 T01461055  RH  024%=      5-min Rain = 0
KLA1 091032Z 02001KT 15/M06 A2967 RMK A01 T01501057  RH  023%=      5-min Rain = 0
KLA1 091033Z 10001KT 15/M06 A2967 RMK A01 T01541058  RH  023%=      5-min Rain = 0
KLA1 091034Z 12003KT 15/M05 A2967 RMK A01 T01501054  RH  024%=      5-min Rain = 0
KLA1 091035Z 14004KT 14/M06 A2967 RMK A01 T01411056  RH  025%=      5-min Rain = 0
KLA1 091036Z 12003KT 14/M06 A2967 RMK A01 T01351056  RH  026%=      5-min Rain = 0
KLA1 091037Z 09003KT 13/M06 A2967 RMK A01 T01311057  RH  027%=      5-min Rain = 0
KLA1 091038Z 08003KT 13/M06 A2967 RMK A01 T01291055  RH  027%=      5-min Rain = 0
KLA1 091039Z 03003KT 13/M05 A2967 RMK A01 T01281054  RH  028%=      5-min Rain = 0
KLA1 091040Z 01002KT 13/M05 A2967 RMK A01 T01291054  RH  028%=      5-min Rain = 0
KLA1 091041Z 36003KT 13/M05 A2967 RMK A01 T01301053  RH  028%=      5-min Rain = 0
KLA1 091042Z 02003KT 13/M05 A2967 RMK A01 T01311053  RH  027%=      5-min Rain = 0
KLA1 091043Z 08003KT 13/M05 A2967 RMK A01 T01321053  RH  027%=      5-min Rain = 0
KLA1 091044Z 08004KT 14/M06 A2967 RMK A01 T01391055  RH  026%=      5-min Rain = 0
KLA1 091045Z 08004KT 15/M05 A2967 RMK A01 T01501053  RH  024%=      5-min Rain = 0
KLA1 091046Z 08004KT 15/M05 A2967 RMK A01 T01541054  RH  023%=      5-min Rain = 0
KLA1 091047Z 09003KT 15/M05 A2967 RMK A01 T01521053  RH  024%=      5-min Rain = 0
KLA1 091048Z 10003KT 15/M05 A2967 RMK A01 T01491052  RH  024%=      5-min Rain = 0
KLA1 091049Z 12003KT 15/M05 A2967 RMK A01 T01491054  RH  024%=      5-min Rain = 0
KLA1 091050Z 12003KT 15/M05 A2967 RMK A01 T01531054  RH  024%=      5-min Rain = 0
KLA1 091051Z 12004KT 16/M05 A2967 RMK A01 T01571054  RH  023%=      5-min Rain = 0
KLA1 091052Z 11004KT 16/M05 A2967 RMK A01 T01611054  RH  022%=      5-min Rain = 0
KLA1 091053Z 11004KT 17/M06 A2967 RMK A01 T01651055  RH  022%=      5-min Rain = 0
KLA1 091054Z 11004KT 17/M05 A2967 RMK A01 T01671054  RH  021%=      5-min Rain = 0
KLA1 091055Z 11004KT 17/M06 A2967 RMK A01 T01671055  RH  021%=      5-min Rain = 0
KLA1 091056Z 11004KT 17/M06 A2967 RMK A01 T01681056  RH  021%=      5-min Rain = 0
KLA1 091057Z 10004KT 17/M05 A2967 RMK A01 T01701053  RH  021%=      5-min Rain = 0
KLA1 091058Z 09004KT 17/M05 A2967 RMK A01 T01691052  RH  022%=      5-min Rain = 0
KLA1 091059Z 09004KT 17/M05 A2967 RMK A01 T01661054  RH  022%=      5-min Rain = 0
KLA1 091100Z 09003KT 17/M05 A2967 RMK A01 T01661053  RH  022%=      5-min Rain = 0
KLA1 091101Z 08004KT 17/M05 A2967 RMK A01 T01661052  RH  022%=      5-min Rain = 0
KLA1 091102Z 09004KT 17/M05 A2967 RMK A01 T01671052  RH  022%=      5-min Rain = 0
KLA1 091103Z 10003KT 17/M05 A2967 RMK A01 T01651052  RH  022%=      5-min Rain = 0
KLA1 091104Z 10003KT 16/M05 A2967 RMK A01 T01571054  RH  023%=      5-min Rain = 0
KLA1 091105Z 11002KT 15/M05 A2967 RMK A01 T01541053  RH  024%=      5-min Rain = 0
KLA1 091106Z 11003KT 15/M05 A2968 RMK A01 T01541053  RH  024%=      5-min Rain = 0
KLA1 091107Z 11003KT 16/M05 A2968 RMK A01 T01551054  RH  023%=      5-min Rain = 0
KLA1 091108Z 10002KT 15/M06 A2968 RMK A01 T01541055  RH  023%=      5-min Rain = 0
KLA1 091109Z 10001KT 15/M06 A2968 RMK A01 T01521056  RH  023%=      5-min Rain = 0
KLA1 091110Z 08002KT 15/M06 A2968 RMK A01 T01501057  RH  024%=      5-min Rain = 0
KLA1 091111Z 10005KT 15/M06 A2968 RMK A01 T01481058  RH  024%=      5-min Rain = 0
KLA1 091112Z 10005KT 15/M05 A2968 RMK A01 T01491054  RH  024%=      5-min Rain = 0
KLA1 091113Z 11003KT 15/M05 A2968 RMK A01 T01521054  RH  024%=      5-min Rain = 0
KLA1 091114Z 08003KT 15/M06 A2968 RMK A01 T01481058  RH  023%=      5-min Rain = 0
KLA1 091115Z 07003KT 14/M06 A2968 RMK A01 T01441060  RH  024%=      5-min Rain = 0
KLA1 091116Z 06004KT 14/M06 A2968 RMK A01 T01421059  RH  024%=      5-min Rain = 0
KLA1 091117Z 07004KT 15/M05 A2968 RMK A01 T01451053  RH  025%=      5-min Rain = 0
KLA1 091118Z 07004KT 15/M05 A2968 RMK A01 T01531048  RH  025%=      5-min Rain = 0
KLA1 091119Z 09004KT 16/M05 A2968 RMK A01 T01621046  RH  024%=      5-min Rain = 0
KLA1 091120Z 10005KT 17/M05 A2968 RMK A01 T01711045  RH  023%=      5-min Rain = 0
KLA1 091121Z 10004KT 18/M04 A2968 RMK A01 T01761044  RH  022%=      5-min Rain = 0
KLA1 091122Z 10004KT 18/M05 A2968 RMK A01 T01761046  RH  022%=      5-min Rain = 0
KLA1 091123Z 10004KT 18/M05 A2968 RMK A01 T01771046  RH  022%=      5-min Rain = 0
KLA1 091124Z 08004KT 18/M05 A2968 RMK A01 T01771046  RH  022%=      5-min Rain = 0
KLA1 091125Z 08003KT 18/M05 A2968 RMK A01 T01781045  RH  022%=      5-min Rain = 0
KLA1 091126Z 09005KT 18/M05 A2968 RMK A01 T01781046  RH  021%=      5-min Rain = 0
KLA1 091127Z 09005KT 18/M05 A2968 RMK A01 T01791045  RH  021%=      5-min Rain = 0
KLA1 091128Z 09004KT 18/M05 A2968 RMK A01 T01811045  RH  021%=      5-min Rain = 0
KLA1 091129Z 12002KT 18/M05 A2968 RMK A01 T01811045  RH  021%=      5-min Rain = 0
KLA1 091130Z 12002KT 18/M05 A2968 RMK A01 T01811046  RH  021%=      5-min Rain = 0
KLA1 091131Z 10001KT 18/M05 A2969 RMK A01 T01791046  RH  021%=      5-min Rain = 0
KLA1 091132Z 09003KT 18/M04 A2968 RMK A01 T01781044  RH  022%=      5-min Rain = 0
KLA1 091133Z 10004KT 18/M04 A2968 RMK A01 T01781044  RH  022%=      5-min Rain = 0
KLA1 091134Z 09002KT 18/M04 A2968 RMK A01 T01771044  RH  022%=      5-min Rain = 0
KLA1 091135Z 08003KT 18/M04 A2968 RMK A01 T01771043  RH  022%=      5-min Rain = 0
KLA1 091136Z 09000KT 18/M04 A2969 RMK A01 T01751042  RH  022%=      5-min Rain = 0
KLA1 091137Z 10002KT 17/M04 A2969 RMK A01 T01731042  RH  023%=      5-min Rain = 0
KLA1 091138Z 10004KT 17/M04 A2968 RMK A01 T01731041  RH  023%=      5-min Rain = 0
KLA1 091139Z 11004KT 17/M04 A2968 RMK A01 T01741040  RH  023%=      5-min Rain = 0
KLA1 091140Z 11007KT 18/M04 A2968 RMK A01 T01751040  RH  023%=      5-min Rain = 0
KLA1 091141Z 12007KT 18/M04 A2968 RMK A01 T01811039  RH  022%=      5-min Rain = 0
KLA1 091142Z 12006KT 19/M04 A2968 RMK A01 T01851040  RH  021%=      5-min Rain = 0
KLA1 091143Z 14004KT 19/M04 A2968 RMK A01 T01861040  RH  021%=      5-min Rain = 0
KLA1 091144Z 13008KT 19/M04 A2968 RMK A01 T01871040  RH  021%=      5-min Rain = 0
KLA1 091145Z 12008KT 18/M04 A2968 RMK A01 T01841042  RH  021%=      5-min Rain = 0
KLA1 091146Z 11007KT 18/M04 A2968 RMK A01 T01831042  RH  021%=      5-min Rain = 0
KLA1 091147Z 11005KT 18/M04 A2968 RMK A01 T01831041  RH  022%=      5-min Rain = 0
KLA1 091148Z 10006KT 18/M04 A2968 RMK A01 T01831040  RH  022%=      5-min Rain = 0
KLA1 091149Z 05003KT 18/M04 A2968 RMK A01 T01821039  RH  022%=      5-min Rain = 0
KLA1 091150Z 07002KT 18/M04 A2969 RMK A01 T01811038  RH  022%=      5-min Rain = 0
KLA1 091151Z 07004KT 18/M04 A2968 RMK A01 T01791038  RH  023%=      5-min Rain = 0
KLA1 091152Z 05004KT 18/M04 A2969 RMK A01 T01771038  RH  023%=      5-min Rain = 0
KLA1 091153Z 06004KT 18/M04 A2969 RMK A01 T01801037  RH  023%=      5-min Rain = 0
KLA1 091154Z 09003KT 18/M04 A2969 RMK A01 T01821036  RH  022%=      5-min Rain = 0
KLA1 091155Z 07005KT 18/M04 A2969 RMK A01 T01831036  RH  022%=      5-min Rain = 0
KLA1 091156Z 07005KT 18/M04 A2969 RMK A01 T01831036  RH  022%=      5-min Rain = 0
KLA1 091157Z 09004KT 18/M04 A2969 RMK A01 T01841036  RH  022%=      5-min Rain = 0
KLA1 091158Z 09005KT 18/M04 A2969 RMK A01 T01841035  RH  022%=      5-min Rain = 0
KLA1 091159Z 10005KT 18/M04 A2969 RMK A01 T01831035  RH  022%=      5-min Rain = 0
KLA1 091200Z 10007KT 18/M03 A2969 RMK A01 T01821034  RH  023%=      5-min Rain = 0
KLA1 091201Z 10007KT 18/M03 A2969 RMK A01 T01811033  RH  023%=      5-min Rain = 0
KLA1 091202Z 09004KT 18/M03 A2969 RMK A01 T01811033  RH  023%=      5-min Rain = 0
KLA1 091203Z 10004KT 18/M03 A2969 RMK A01 T01811033  RH  023%=      5-min Rain = 0
KLA1 091204Z 09004KT 18/M03 A2969 RMK A01 T01821032  RH  023%=      5-min Rain = 0
KLA1 091205Z 09004KT 18/M03 A2969 RMK A01 T01821032  RH  023%=      5-min Rain = 0
KLA1 091206Z 08006KT 18/M03 A2969 RMK A01 T01811032  RH  023%=      5-min Rain = 0
KLA1 091207Z 09006KT 18/M03 A2969 RMK A01 T01811031  RH  023%=      5-min Rain = 0
KLA1 091208Z 08006KT 18/M03 A2969 RMK A01 T01811031  RH  023%=      5-min Rain = 0
KLA1 091209Z 08006KT 18/M03 A2969 RMK A01 T01801031  RH  024%=      5-min Rain = 0
KLA1 091210Z 09007KT 18/M03 A2969 RMK A01 T01801030  RH  024%=      5-min Rain = 0
KLA1 091211Z 09007KT 18/M03 A2969 RMK A01 T01801029  RH  024%=      5-min Rain = 0
KLA1 091212Z 08005KT 18/M03 A2969 RMK A01 T01801029  RH  024%=      5-min Rain = 0
KLA1 091213Z 06004KT 18/M03 A2969 RMK A01 T01791028  RH  024%=      5-min Rain = 0
KLA1 091214Z 07005KT 18/M03 A2969 RMK A01 T01791027  RH  025%=      5-min Rain = 0
KLA1 091215Z 08006KT 18/M03 A2969 RMK A01 T01781027  RH  025%=      5-min Rain = 0
KLA1 091216Z 09005KT 18/M03 A2969 RMK A01 T01771027  RH  025%=      5-min Rain = 0
KLA1 091217Z 06003KT 18/M03 A297 RMK A01 T01771026  RH  025%=      5-min Rain = 0
KLA1 091218Z 04002KT 18/M03 A297 RMK A01 T01781026  RH  025%=      5-min Rain = 0
KLA1 091219Z 04002KT 18/M03 A297 RMK A01 T01791025  RH  025%=      5-min Rain = 0
KLA1 091220Z 04002KT 18/M03 A297 RMK A01 T01791025  RH  025%=      5-min Rain = 0
KLA1 091221Z 04002KT 18/M03 A297 RMK A01 T01781025  RH  025%=      5-min Rain = 0
KLA1 091222Z 04003KT 18/M03 A297 RMK A01 T01781026  RH  025%=      5-min Rain = 0
KLA1 091223Z 03002KT 18/M03 A297 RMK A01 T01771026  RH  025%=      5-min Rain = 0
KLA1 091224Z 02003KT 17/M03 A297 RMK A01 T01731028  RH  025%=      5-min Rain = 0
KLA1 091225Z 01001KT 17/M03 A297 RMK A01 T01701028  RH  026%=      5-min Rain = 0
KLA1 091226Z 07001KT 17/M03 A297 RMK A01 T01661030  RH  026%=      5-min Rain = 0
KLA1 091227Z 04002KT 16/M03 A297 RMK A01 T01611032  RH  027%=      5-min Rain = 0
KLA1 091228Z 02001KT 16/M03 A297 RMK A01 T01591031  RH  027%=      5-min Rain = 0
KLA1 091229Z 01001KT 16/M03 A297 RMK A01 T01561030  RH  028%=      5-min Rain = 0
KLA1 091230Z 07002KT 15/M03 A297 RMK A01 T01531030  RH  028%=      5-min Rain = 0
KLA1 091231Z 09001KT 15/M03 A297 RMK A01 T01511030  RH  029%=      5-min Rain = 0
KLA1 091232Z 12002KT 15/M03 A297 RMK A01 T01511029  RH  029%=      5-min Rain = 0
KLA1 091233Z 11002KT 15/M03 A297 RMK A01 T01511028  RH  029%=      5-min Rain = 0
KLA1 091234Z 09000KT 15/M03 A297 RMK A01 T01491028  RH  029%=      5-min Rain = 0
KLA1 091235Z 15000KT 15/M03 A297 RMK A01 T01471029  RH  030%=      5-min Rain = 0
KLA1 091236Z 19002KT 15/M03 A297 RMK A01 T01451028  RH  030%=      5-min Rain = 0
KLA1 091237Z 20001KT 14/M03 A297 RMK A01 T01431031  RH  030%=      5-min Rain = 0
KLA1 091238Z 21001KT 14/M04 A297 RMK A01 T01411035  RH  029%=      5-min Rain = 0
KLA1 091239Z 24001KT 14/M04 A297 RMK A01 T01391037  RH  029%=      5-min Rain = 0
KLA1 091240Z 25002KT 14/M04 A297 RMK A01 T01371037  RH  030%=      5-min Rain = 0
KLA1 091241Z 27004KT 14/M04 A297 RMK A01 T01351039  RH  030%=      5-min Rain = 0
KLA1 091242Z 27002KT 13/M04 A297 RMK A01 T01321040  RH  030%=      5-min Rain = 0
KLA1 091243Z 22001KT 13/M04 A297 RMK A01 T01301042  RH  030%=      5-min Rain = 0
KLA1 091244Z 17001KT 13/M04 A297 RMK A01 T01291042  RH  030%=      5-min Rain = 0
KLA1 091245Z 11003KT 13/M04 A297 RMK A01 T01291042  RH  030%=      5-min Rain = 0
KLA1 091246Z 09004KT 13/M04 A297 RMK A01 T01291039  RH  031%=      5-min Rain = 0
KLA1 091247Z 02002KT 13/M03 A2971 RMK A01 T01341032  RH  031%=      5-min Rain = 0
KLA1 091248Z 28006KT 14/M04 A2971 RMK A01 T01351040  RH  029%=      5-min Rain = 0
KLA1 091249Z 34002KT 13/M05 A2971 RMK A01 T01311046  RH  029%=      5-min Rain = 0
KLA1 091250Z 08003KT 13/M04 A2971 RMK A01 T01301043  RH  030%=      5-min Rain = 0
KLA1 091251Z 06004KT 13/M04 A2971 RMK A01 T01301041  RH  030%=      5-min Rain = 0
KLA1 091252Z 05001KT 13/M04 A2971 RMK A01 T01321035  RH  031%=      5-min Rain = 0
KLA1 091253Z 27002KT 13/M04 A2971 RMK A01 T01341036  RH  030%=      5-min Rain = 0
KLA1 091254Z 25002KT 13/M04 A2971 RMK A01 T01321041  RH  030%=      5-min Rain = 0
KLA1 091255Z 13002KT 13/M04 A2971 RMK A01 T01301043  RH  030%=      5-min Rain = 0
KLA1 091256Z 13005KT 13/M04 A2971 RMK A01 T01281041  RH  030%=      5-min Rain = 0
KLA1 091257Z 13006KT 13/M03 A2971 RMK A01 T01301033  RH  032%=      5-min Rain = 0
KLA1 091258Z 11006KT 14/M02 A2971 RMK A01 T01411020  RH  033%=      5-min Rain = 0
KLA1 091259Z 12005KT 15/M02 A2971 RMK A01 T01531017  RH  031%=      5-min Rain = 0
KLA1 091300Z 11006KT 16/M02 A2971 RMK A01 T01581019  RH  030%=      5-min Rain = 0
KLA1 091301Z 11006KT 16/M02 A2971 RMK A01 T01591021  RH  029%=      5-min Rain = 0
KLA1 091302Z 09005KT 16/M02 A2971 RMK A01 T01591020  RH  029%=      5-min Rain = 0
KLA1 091303Z 10005KT 16/M02 A2971 RMK A01 T01591020  RH  029%=      5-min Rain = 0
KLA1 091304Z 09004KT 16/M02 A2971 RMK A01 T01601017  RH  030%=      5-min Rain = 0
KLA1 091305Z 09004KT 16/M02 A2971 RMK A01 T01631015  RH  030%=      5-min Rain = 0
KLA1 091306Z 10004KT 16/M02 A2972 RMK A01 T01641016  RH  029%=      5-min Rain = 0
KLA1 091307Z 10005KT 16/M02 A2972 RMK A01 T01631017  RH  029%=      5-min Rain = 0
KLA1 091308Z 12005KT 16/M02 A2971 RMK A01 T01641016  RH  029%=      5-min Rain = 0
KLA1 091309Z 13004KT 17/M01 A2972 RMK A01 T01681014  RH  029%=      5-min Rain = 0
KLA1 091310Z 14002KT 17/M01 A2972 RMK A01 T01711013  RH  028%=      5-min Rain = 0
KLA1 091311Z 13003KT 17/M01 A2972 RMK A01 T01731013  RH  028%=      5-min Rain = 0
KLA1 091312Z 12004KT 18/M01 A2972 RMK A01 T01751012  RH  028%=      5-min Rain = 0
KLA1 091313Z 12005KT 18/M01 A2972 RMK A01 T01771011  RH  028%=      5-min Rain = 0
KLA1 091314Z 10005KT 18/M01 A2972 RMK A01 T01791011  RH  027%=      5-min Rain = 0
KLA1 091315Z 09003KT 18/M01 A2972 RMK A01 T01811013  RH  027%=      5-min Rain = 0
KLA1 091316Z 06003KT 18/M02 A2972 RMK A01 T01761017  RH  027%=      5-min Rain = 0
KLA1 091317Z 04003KT 17/M02 A2972 RMK A01 T01691017  RH  028%=      5-min Rain = 0
KLA1 091318Z 04003KT 16/M02 A2972 RMK A01 T01631017  RH  029%=      5-min Rain = 0
KLA1 091319Z 06002KT 16/M02 A2972 RMK A01 T01601017  RH  030%=      5-min Rain = 0
KLA1 091320Z 10001KT 16/M02 A2972 RMK A01 T01601017  RH  030%=      5-min Rain = 0
KLA1 091321Z 10002KT 16/M02 A2972 RMK A01 T01601018  RH  029%=      5-min Rain = 0
KLA1 091322Z 08002KT 16/M02 A2972 RMK A01 T01641018  RH  029%=      5-min Rain = 0
KLA1 091323Z 07003KT 17/M02 A2972 RMK A01 T01661019  RH  028%=      5-min Rain = 0
KLA1 091324Z 04003KT 17/M02 A2972 RMK A01 T01681017  RH  028%=      5-min Rain = 0
KLA1 091325Z 03003KT 17/M02 A2972 RMK A01 T01711016  RH  028%=      5-min Rain = 0
KLA1 091326Z 01003KT 17/M02 A2972 RMK A01 T01741016  RH  027%=      5-min Rain = 0
KLA1 091327Z 01003KT 18/M02 A2972 RMK A01 T01751015  RH  027%=      5-min Rain = 0
KLA1 091328Z 03002KT 18/M01 A2972 RMK A01 T01771013  RH  027%=      5-min Rain = 0
KLA1 091329Z 05001KT 18/M01 A2972 RMK A01 T01781013  RH  027%=      5-min Rain = 0
KLA1 091330Z 08001KT 18/M01 A2972 RMK A01 T01791013  RH  027%=      5-min Rain = 0
KLA1 091331Z 10001KT 18/M01 A2972 RMK A01 T01811013  RH  027%=      5-min Rain = 0
KLA1 091332Z 15002KT 18/M01 A2972 RMK A01 T01821011  RH  027%=      5-min Rain = 0
KLA1 091333Z 14003KT 18/M01 A2972 RMK A01 T01831011  RH  027%=      5-min Rain = 0
KLA1 091334Z 14004KT 18/M01 A2973 RMK A01 T01841012  RH  027%=      5-min Rain = 0
KLA1 091335Z 14005KT 19/M01 A2973 RMK A01 T01851010  RH  027%=      5-min Rain = 0
KLA1 091336Z 14006KT 19/M01 A2973 RMK A01 T01871005  RH  027%=      5-min Rain = 0
KLA1 091337Z 14007KT 19/M01 A2972 RMK A01 T01901005  RH  027%=      5-min Rain = 0
KLA1 091338Z 13006KT 19/M01 A2972 RMK A01 T01911008  RH  026%=      5-min Rain = 0
KLA1 091339Z 13005KT 19/M01 A2973 RMK A01 T01911011  RH  025%=      5-min Rain = 0
KLA1 091340Z 14005KT 19/M01 A2973 RMK A01 T01891011  RH  026%=      5-min Rain = 0
KLA1 091341Z 12005KT 19/M01 A2973 RMK A01 T01891008  RH  026%=      5-min Rain = 0
KLA1 091342Z 12007KT 19/M01 A2973 RMK A01 T01891006  RH  027%=      5-min Rain = 0
KLA1 091343Z 11006KT 19/M00 A2973 RMK A01 T01911004  RH  027%=      5-min Rain = 0
KLA1 091344Z 12005KT 19/M01 A2973 RMK A01 T01931006  RH  026%=      5-min Rain = 0
KLA1 091345Z 12006KT 19/M01 A2973 RMK A01 T01941006  RH  026%=      5-min Rain = 0
KLA1 091346Z 11005KT 20/M01 A2973 RMK A01 T01951005  RH  026%=      5-min Rain = 0
KLA1 091347Z 13005KT 20/M00 A2973 RMK A01 T01961003  RH  026%=      5-min Rain = 0
KLA1 091348Z 11005KT 20/M00 A2973 RMK A01 T01951002  RH  027%=      5-min Rain = 0
KLA1 091349Z 11006KT 20/00 A2973 RMK A01 T01960000  RH  027%=      5-min Rain = 0
KLA1 091350Z 11005KT 20/00 A2973 RMK A01 T01950001  RH  027%=      5-min Rain = 0
KLA1 091351Z 11005KT 20/00 A2973 RMK A01 T01950004  RH  028%=      5-min Rain = 0
KLA1 091352Z 12005KT 20/01 A2973 RMK A01 T01950005  RH  028%=      5-min Rain = 0
KLA1 091353Z 12004KT 20/01 A2973 RMK A01 T01960006  RH  028%=      5-min Rain = 0
KLA1 091354Z 11006KT 20/01 A2973 RMK A01 T01960008  RH  028%=      5-min Rain = 0
KLA1 091355Z 11004KT 20/01 A2973 RMK A01 T01970009  RH  028%=      5-min Rain = 0
KLA1 091356Z 11003KT 20/01 A2973 RMK A01 T01980009  RH  028%=      5-min Rain = 0
KLA1 091357Z 12003KT 20/01 A2973 RMK A01 T01990010  RH  028%=      5-min Rain = 0
KLA1 091358Z 11003KT 20/01 A2973 RMK A01 T02010007  RH  027%=      5-min Rain = 0
KLA1 091359Z 10002KT 20/00 A2973 RMK A01 T02020004  RH  027%=      5-min Rain = 0
KLA1 091400Z 08001KT 20/00 A2973 RMK A01 T02040004  RH  026%=      5-min Rain = 0
KLA1 091401Z 10001KT 21/00 A2973 RMK A01 T02060003  RH  026%=      5-min Rain = 0
KLA1 091402Z 14000KT 21/00 A2973 RMK A01 T02080003  RH  025%=      5-min Rain = 0
KLA1 091403Z 12003KT 21/00 A2973 RMK A01 T02100003  RH  025%=      5-min Rain = 0
KLA1 091404Z 12003KT 21/M00 A2973 RMK A01 T02121002  RH  024%=      5-min Rain = 0
KLA1 091405Z 13002KT 21/M01 A2973 RMK A01 T02131006  RH  023%=      5-min Rain = 0
KLA1 091406Z 13002KT 21/M01 A2973 RMK A01 T02141007  RH  023%=      5-min Rain = 0
KLA1 091407Z 12003KT 22/M01 A2973 RMK A01 T02171011  RH  022%=      5-min Rain = 0
KLA1 091408Z 13003KT 22/M01 A2973 RMK A01 T02191009  RH  022%=      5-min Rain = 0
KLA1 091409Z 13004KT 22/M01 A2973 RMK A01 T02211005  RH  022%=      5-min Rain = 0
KLA1 091410Z 14004KT 22/M01 A2973 RMK A01 T02231008  RH  021%=      5-min Rain = 0
KLA1 091411Z 14003KT 22/M01 A2973 RMK A01 T02241009  RH  021%=      5-min Rain = 0
KLA1 091412Z 14003KT 22/M01 A2973 RMK A01 T02241009  RH  021%=      5-min Rain = 0
KLA1 091413Z 13002KT 23/M01 A2973 RMK A01 T02251007  RH  021%=      5-min Rain = 0
KLA1 091414Z 13003KT 23/M01 A2972 RMK A01 T02261011  RH  021%=      5-min Rain = 0
KLA1 091415Z 12003KT 23/M01 A2972 RMK A01 T02281012  RH  020%=      5-min Rain = 0
KLA1 091416Z 13004KT 23/M01 A2972 RMK A01 T02291006  RH  021%=      5-min Rain = 0
KLA1 091417Z 14003KT 23/M00 A2972 RMK A01 T02301004  RH  021%=      5-min Rain = 0
KLA1 091418Z 14003KT 23/M01 A2972 RMK A01 T02301011  RH  020%=      5-min Rain = 0
KLA1 091419Z 11000KT 23/M01 A2972 RMK A01 T02311013  RH  020%=      5-min Rain = 0
KLA1 091420Z 12000KT 23/M01 A2972 RMK A01 T02321008  RH  020%=      5-min Rain = 0
KLA1 091421Z 06000KT 24/M01 A2972 RMK A01 T02351011  RH  020%=      5-min Rain = 0
KLA1 091422Z 06000KT 24/M01 A2972 RMK A01 T02371009  RH  019%=      5-min Rain = 0
KLA1 091423Z 08000KT 24/M02 A2972 RMK A01 T02401017  RH  018%=      5-min Rain = 0
KLA1 091424Z 05001KT 24/M02 A2972 RMK A01 T02421019  RH  018%=      5-min Rain = 0
KLA1 091425Z 03002KT 24/M02 A2972 RMK A01 T02431024  RH  017%=      5-min Rain = 0
KLA1 091426Z 04002KT 25/M02 A2972 RMK A01 T02451023  RH  017%=      5-min Rain = 0
KLA1 091427Z 35001KT 25/M03 A2972 RMK A01 T02451027  RH  016%=      5-min Rain = 0
KLA1 091428Z 00000KT 25/M03 A2972 RMK A01 T02461031  RH  016%=      5-min Rain = 0
KLA1 091429Z 07001KT 25/M03 A2972 RMK A01 T02471031  RH  016%=      5-min Rain = 0
KLA1 091430Z 10001KT 25/M03 A2972 RMK A01 T02491028  RH  016%=      5-min Rain = 0
KLA1 091431Z 12001KT 25/M03 A2972 RMK A01 T02511033  RH  015%=      5-min Rain = 0
KLA1 091432Z 14001KT 25/M04 A2972 RMK A01 T02511036  RH  015%=      5-min Rain = 0
KLA1 091433Z 15001KT 25/M04 A2972 RMK A01 T02521039  RH  014%=      5-min Rain = 0
KLA1 091434Z 19001KT 25/M03 A2972 RMK A01 T02521033  RH  015%=      5-min Rain = 0
KLA1 091435Z 23002KT 25/M04 A2972 RMK A01 T02531035  RH  015%=      5-min Rain = 0
KLA1 091436Z 21001KT 25/M04 A2972 RMK A01 T02521036  RH  015%=      5-min Rain = 0
KLA1 091437Z 12000KT 25/M03 A2972 RMK A01 T02531033  RH  015%=      5-min Rain = 0
KLA1 091438Z 25002KT 25/M03 A2972 RMK A01 T02541029  RH  015%=      5-min Rain = 0
KLA1 091439Z 27003KT 25/M03 A2972 RMK A01 T02541033  RH  015%=      5-min Rain = 0
KLA1 091440Z 31001KT 25/M03 A2972 RMK A01 T02531032  RH  015%=      5-min Rain = 0
KLA1 091441Z 00000KT 25/M03 A2972 RMK A01 T02531031  RH  015%=      5-min Rain = 0
KLA1 091442Z 17000KT 25/M03 A2972 RMK A01 T02531032  RH  015%=      5-min Rain = 0
KLA1 091443Z 15001KT 26/M03 A2972 RMK A01 T02551030  RH  015%=      5-min Rain = 0
KLA1 091444Z 15003KT 26/M02 A2972 RMK A01 T02571022  RH  016%=      5-min Rain = 0
KLA1 091445Z 17003KT 26/M02 A2972 RMK A01 T02581021  RH  016%=      5-min Rain = 0
KLA1 091446Z 19001KT 26/M03 A2972 RMK A01 T02571027  RH  015%=      5-min Rain = 0
KLA1 091447Z 18001KT 26/M03 A2972 RMK A01 T02571025  RH  015%=      5-min Rain = 0
KLA1 091448Z 18001KT 26/M02 A2972 RMK A01 T02581020  RH  016%=      5-min Rain = 0
KLA1 091449Z 19002KT 26/M02 A2972 RMK A01 T02601019  RH  016%=      5-min Rain = 0
KLA1 091450Z 17002KT 26/M02 A2972 RMK A01 T02601024  RH  015%=      5-min Rain = 0
KLA1 091451Z 18002KT 26/M02 A2972 RMK A01 T02601015  RH  016%=      5-min Rain = 0
KLA1 091452Z 18002KT 26/M02 A2972 RMK A01 T02591020  RH  016%=      5-min Rain = 0
KLA1 091453Z 17002KT 26/M02 A2972 RMK A01 T02591022  RH  016%=      5-min Rain = 0
KLA1 091454Z 17002KT 26/M02 A2972 RMK A01 T02591018  RH  016%=      5-min Rain = 0
KLA1 091455Z 20003KT 26/M02 A2972 RMK A01 T02591017  RH  016%=      5-min Rain = 0
KLA1 091456Z 21002KT 26/M02 A2972 RMK A01 T02591019  RH  016%=      5-min Rain = 0
KLA1 091457Z 18001KT 26/M02 A2972 RMK A01 T02601020  RH  016%=      5-min Rain = 0
KLA1 091458Z 22001KT 26/M02 A2972 RMK A01 T02601019  RH  016%=      5-min Rain = 0
KLA1 091459Z 17001KT 26/M02 A2972 RMK A01 T02621021  RH  015%=      5-min Rain = 0
KLA1 091500Z 18001KT 26/M02 A2972 RMK A01 T02631023  RH  015%=      5-min Rain = 0
KLA1 091501Z 20002KT 27/M02 A2972 RMK A01 T02651019  RH  015%=      5-min Rain = 0
KLA1 091502Z 23002KT 27/M02 A2972 RMK A01 T02661019  RH  015%=      5-min Rain = 0
KLA1 091503Z 22001KT 27/M02 A2972 RMK A01 T02671022  RH  015%=      5-min Rain = 0
KLA1 091504Z 18001KT 27/M02 A2972 RMK A01 T02671016  RH  015%=      5-min Rain = 0
KLA1 091505Z 18001KT 27/M02 A2972 RMK A01 T02681018  RH  015%=      5-min Rain = 0
KLA1 091506Z 19003KT 27/M02 A2972 RMK A01 T02691020  RH  015%=      5-min Rain = 0
KLA1 091507Z 22005KT 27/M03 A2972 RMK A01 T02691025  RH  014%=      5-min Rain = 0
KLA1 091508Z 25005KT 27/M03 A2972 RMK A01 T02711029  RH  014%=      5-min Rain = 0
KLA1 091509Z 26003KT 27/M03 A2972 RMK A01 T02741029  RH  014%=      5-min Rain = 0
KLA1 091510Z 22004KT 28/M03 A2972 RMK A01 T02751026  RH  014%=      5-min Rain = 0
KLA1 091511Z 22005KT 28/M02 A2972 RMK A01 T02771023  RH  014%=      5-min Rain = 0
KLA1 091512Z 25004KT 28/M02 A2972 RMK A01 T02781023  RH  014%=      5-min Rain = 0
KLA1 091513Z 25005KT 28/M02 A2972 RMK A01 T02801024  RH  014%=      5-min Rain = 0
KLA1 091514Z 26004KT 28/M02 A2972 RMK A01 T02811023  RH  014%=      5-min Rain = 0
KLA1 091515Z 27005KT 28/M02 A2972 RMK A01 T02831024  RH  013%=      5-min Rain = 0
KLA1 091516Z 24006KT 28/M03 A2971 RMK A01 T02841026  RH  013%=      5-min Rain = 0
KLA1 091517Z 26007KT 29/M03 A2972 RMK A01 T02851025  RH  013%=      5-min Rain = 0
KLA1 091518Z 26007G12KT 29/M02 A2972 RMK A01 T02881023  RH  013%=      5-min Rain = 0
KLA1 091519Z 27016G22KT 29/M03 A2972 RMK A01 T02911028  RH  012%=      5-min Rain = 0
KLA1 091520Z 26016G21KT 29/M04 A2972 RMK A01 T02931036  RH  011%=      5-min Rain = 0
KLA1 091521Z 26012KT 30/M04 A2972 RMK A01 T02951036  RH  011%=      5-min Rain = 0
KLA1 091522Z 27015G22KT 30/M03 A2972 RMK A01 T02981034  RH  011%=      5-min Rain = 0
KLA1 091523Z 27017KT 30/M04 A2971 RMK A01 T02991036  RH  011%=      5-min Rain = 0
KLA1 091524Z 27016KT 30/M04 A2971 RMK A01 T02981036  RH  011%=      5-min Rain = 0
KLA1 091525Z 27017KT 30/M04 A2971 RMK A01 T02981036  RH  011%=      5-min Rain = 0
KLA1 091526Z 27015G20KT 30/M04 A2971 RMK A01 T02981037  RH  011%=      5-min Rain = 0
KLA1 091527Z 27015G21KT 30/M04 A2971 RMK A01 T02991036  RH  011%=      5-min Rain = 0
KLA1 091528Z 27015KT 30/M04 A2971 RMK A01 T02991037  RH  011%=      5-min Rain = 0
KLA1 091529Z 27015KT 30/M04 A2971 RMK A01 T02991037  RH  011%=      5-min Rain = 0
KLA1 091530Z 28012KT 30/M04 A2971 RMK A01 T03001035  RH  011%=      5-min Rain = 0
KLA1 091531Z 28012KT 30/M03 A2971 RMK A01 T03011034  RH  011%=      5-min Rain = 0
KLA1 091532Z 27013G18KT 30/M03 A2971 RMK A01 T03011034  RH  011%=      5-min Rain = 0
KLA1 091533Z 28013KT 30/M04 A2971 RMK A01 T03021035  RH  011%=      5-min Rain = 0
KLA1 091534Z 28015KT 30/M03 A2971 RMK A01 T03021034  RH  011%=      5-min Rain = 0
KLA1 091535Z 27017KT 30/M03 A2971 RMK A01 T03021034  RH  011%=      5-min Rain = 0
KLA1 091536Z 28012KT 30/M03 A2972 RMK A01 T03031034  RH  011%=      5-min Rain = 0
KLA1 091537Z 28014G19KT 30/M03 A2972 RMK A01 T03041033  RH  011%=      5-min Rain = 0
KLA1 091538Z 29013G18KT 31/M04 A2972 RMK A01 T03051035  RH  011%=      5-min Rain = 0
KLA1 091539Z 29017KT 30/M04 A2972 RMK A01 T03041037  RH  011%=      5-min Rain = 0
KLA1 091540Z 28015G21KT 30/M04 A2972 RMK A01 T03021035  RH  011%=      5-min Rain = 0
KLA1 091541Z 28013KT 30/M03 A2972 RMK A01 T03021034  RH  011%=      5-min Rain = 0
KLA1 091542Z 29015G22KT 30/M03 A2972 RMK A01 T03041034  RH  011%=      5-min Rain = 0
KLA1 091543Z 29016KT 31/M04 A2972 RMK A01 T03051036  RH  011%=      5-min Rain = 0
KLA1 091544Z 29018G23KT 30/M04 A2972 RMK A01 T03041036  RH  011%=      5-min Rain = 0
KLA1 091545Z 27017G23KT 30/M04 A2972 RMK A01 T03031036  RH  011%=      5-min Rain = 0
KLA1 091546Z 28012G18KT 30/M04 A2972 RMK A01 T03031035  RH  011%=      5-min Rain = 0
KLA1 091547Z 29017KT 30/M04 A2972 RMK A01 T03041035  RH  011%=      5-min Rain = 0
KLA1 091548Z 29017G22KT 30/M04 A2972 RMK A01 T03041037  RH  011%=      5-min Rain = 0
KLA1 091549Z 28021G27KT 30/M04 A2972 RMK A01 T03031037  RH  011%=      5-min Rain = 0
KLA1 091550Z 28014G19KT 30/M04 A2972 RMK A01 T03021038  RH  011%=      5-min Rain = 0
KLA1 091551Z 29019G25KT 30/M04 A2972 RMK A01 T03021036  RH  011%=      5-min Rain = 0
KLA1 091552Z 28016G21KT 30/M04 A2972 RMK A01 T03021038  RH  011%=      5-min Rain = 0
KLA1 091553Z 28017G23KT 30/M04 A2972 RMK A01 T03031035  RH  011%=      5-min Rain = 0
KLA1 091554Z 28019G25KT 30/M04 A2972 RMK A01 T03041036  RH  011%=      5-min Rain = 0
KLA1 091555Z 28020G25KT 30/M04 A2972 RMK A01 T03041036  RH  011%=      5-min Rain = 0
KLA1 091556Z 27017G22KT 30/M04 A2972 RMK A01 T03031037  RH  011%=      5-min Rain = 0
KLA1 091557Z 27016KT 30/M04 A2972 RMK A01 T03031037  RH  011%=      5-min Rain = 0
KLA1 091558Z 29018KT 30/M04 A2972 RMK A01 T03031037  RH  011%=      5-min Rain = 0
KLA1 091559Z 29015KT 30/M04 A2972 RMK A01 T03031036  RH  011%=      5-min Rain = 0
KLA1 091600Z 29013KT 30/M03 A2972 RMK A01 T03031034  RH  011%=      5-min Rain = 0
KLA1 091601Z 29015G20KT 30/M03 A2972 RMK A01 T03041033  RH  011%=      5-min Rain = 0
KLA1 091602Z 28015KT 31/M04 A2972 RMK A01 T03051035  RH  011%=      5-min Rain = 0
KLA1 091603Z 28019G24KT 31/M04 A2972 RMK A01 T03051035  RH  011%=      5-min Rain = 0
KLA1 091604Z 29020G25KT 31/M04 A2972 RMK A01 T03051036  RH  011%=      5-min Rain = 0
KLA1 091605Z 30019G24KT 30/M04 A2972 RMK A01 T03041036  RH  011%=      5-min Rain = 0
KLA1 091606Z 29018G23KT 30/M04 A2972 RMK A01 T03031035  RH  011%=      5-min Rain = 0
KLA1 091607Z 29019KT 30/M04 A2972 RMK A01 T03041035  RH  011%=      5-min Rain = 0
KLA1 091608Z 31017G22KT 30/M04 A2972 RMK A01 T03041035  RH  011%=      5-min Rain = 0
KLA1 091609Z 30016KT 30/M04 A2972 RMK A01 T03031035  RH  011%=      5-min Rain = 0
KLA1 091610Z 29016KT 30/M04 A2972 RMK A01 T03031035  RH  011%=      5-min Rain = 0
KLA1 091611Z 30019G26KT 31/M03 A2972 RMK A01 T03051033  RH  011%=      5-min Rain = 0
KLA1 091612Z 28017G25KT 31/M03 A2972 RMK A01 T03061034  RH  011%=      5-min Rain = 0
KLA1 091613Z 27013G18KT 31/M03 A2972 RMK A01 T03071032  RH  011%=      5-min Rain = 0
KLA1 091614Z 27017KT 31/M03 A2972 RMK A01 T03081034  RH  011%=      5-min Rain = 0
KLA1 091615Z 27013KT 31/M04 A2972 RMK A01 T03071035  RH  011%=      5-min Rain = 0
KLA1 091616Z 27017G23KT 31/M03 A2972 RMK A01 T03061034  RH  011%=      5-min Rain = 0
KLA1 091617Z 30015G21KT 31/M03 A2972 RMK A01 T03071032  RH  011%=      5-min Rain = 0
KLA1 091618Z 28021G28KT 31/M03 A2972 RMK A01 T03081031  RH  011%=      5-min Rain = 0
KLA1 091619Z 26021KT 31/M03 A2972 RMK A01 T03091033  RH  011%=      5-min Rain = 0
KLA1 091620Z 29014G20KT 31/M03 A2972 RMK A01 T03071033  RH  011%=      5-min Rain = 0
KLA1 091621Z 30019KT 31/M03 A2972 RMK A01 T03071032  RH  011%=      5-min Rain = 0
KLA1 091622Z 29017KT 31/M03 A2972 RMK A01 T03081033  RH  011%=      5-min Rain = 0
KLA1 091623Z 29011G17KT 31/M03 A2972 RMK A01 T03081032  RH  011%=      5-min Rain = 0
KLA1 091624Z 30015G21KT 31/M03 A2972 RMK A01 T03101030  RH  011%=      5-min Rain = 0
KLA1 091625Z 30020G26KT 31/M03 A2972 RMK A01 T03111032  RH  011%=      5-min Rain = 0
KLA1 091626Z 31017G22KT 31/M03 A2972 RMK A01 T03091032  RH  011%=      5-min Rain = 0
KLA1 091627Z 31018KT 31/M03 A2972 RMK A01 T03091032  RH  011%=      5-min Rain = 0
KLA1 091628Z 29016G21KT 31/M03 A2972 RMK A01 T03091031  RH  011%=      5-min Rain = 0
KLA1 091629Z 29014KT 31/M03 A2972 RMK A01 T03091032  RH  011%=      5-min Rain = 0
KLA1 091630Z 29015KT 31/M03 A2972 RMK A01 T03091032  RH  011%=      5-min Rain = 0
KLA1 091631Z 29016KT 31/M03 A2972 RMK A01 T03101031  RH  011%=      5-min Rain = 0
KLA1 091632Z 29014G19KT 31/M03 A2972 RMK A01 T03101031  RH  011%=      5-min Rain = 0
KLA1 091633Z 29014G19KT 31/M03 A2972 RMK A01 T03111030  RH  011%=      5-min Rain = 0
KLA1 091634Z 29012KT 31/M03 A2972 RMK A01 T03121030  RH  011%=      5-min Rain = 0
KLA1 091635Z 27016G22KT 31/M03 A2972 RMK A01 T03121029  RH  011%=      5-min Rain = 0
KLA1 091636Z 29017G24KT 31/M03 A2972 RMK A01 T03121030  RH  011%=      5-min Rain = 0
KLA1 091637Z 29020G25KT 31/M03 A2972 RMK A01 T03121031  RH  011%=      5-min Rain = 0
KLA1 091638Z 30017KT 31/M03 A2972 RMK A01 T03101032  RH  011%=      5-min Rain = 0
KLA1 091639Z 29013KT 31/M03 A2972 RMK A01 T03091030  RH  011%=      5-min Rain = 0
KLA1 091640Z 29014G19KT 31/M03 A2972 RMK A01 T03101031  RH  011%=      5-min Rain = 0
KLA1 091641Z 28014KT 31/M03 A2972 RMK A01 T03101032  RH  011%=      5-min Rain = 0
KLA1 091642Z 29012KT 31/M03 A2972 RMK A01 T03101030  RH  011%=      5-min Rain = 0
KLA1 091643Z 29014KT 31/M03 A2972 RMK A01 T03101029  RH  011%=      5-min Rain = 0
KLA1 091644Z 28015G21KT 31/M03 A2972 RMK A01 T03121028  RH  011%=      5-min Rain = 0
KLA1 091645Z 27019KT 31/M03 A2972 RMK A01 T03141029  RH  011%=      5-min Rain = 0
KLA1 091646Z 27020KT 31/M03 A2972 RMK A01 T03131030  RH  011%=      5-min Rain = 0
KLA1 091647Z 28014G20KT 31/M03 A2972 RMK A01 T03121030  RH  011%=      5-min Rain = 0
KLA1 091648Z 28015G20KT 31/M03 A2972 RMK A01 T03121029  RH  011%=      5-min Rain = 0
KLA1 091649Z 27015KT 31/M03 A2972 RMK A01 T03131030  RH  011%=      5-min Rain = 0
KLA1 091650Z 27013KT 31/M03 A2972 RMK A01 T03131030  RH  011%=      5-min Rain = 0
KLA1 091651Z 28013KT 32/M03 A2972 RMK A01 T03151027  RH  011%=      5-min Rain = 0
KLA1 091652Z 28011KT 32/M03 A2972 RMK A01 T03181026  RH  011%=      5-min Rain = 0
KLA1 091653Z 29013G18KT 32/M03 A2972 RMK A01 T03191025  RH  011%=      5-min Rain = 0
KLA1 091654Z 29015KT 32/M03 A2972 RMK A01 T03191026  RH  011%=      5-min Rain = 0
KLA1 091655Z 29016KT 32/M03 A2972 RMK A01 T03171028  RH  011%=      5-min Rain = 0
KLA1 091656Z 28010G15KT 32/M03 A2972 RMK A01 T03161027  RH  011%=      5-min Rain = 0
KLA1 091657Z 27017KT 32/M03 A2971 RMK A01 T03171025  RH  011%=      5-min Rain = 0
KLA1 091658Z 29016G22KT 32/M03 A2972 RMK A01 T03181027  RH  011%=      5-min Rain = 0
KLA1 091659Z 30015KT 32/M03 A2972 RMK A01 T03171026  RH  011%=      5-min Rain = 0
KLA1 091700Z 30015KT 32/M03 A2972 RMK A01 T03181025  RH  011%=      5-min Rain = 0
KLA1 091701Z 28016G23KT 32/M03 A2972 RMK A01 T03191025  RH  011%=      5-min Rain = 0
KLA1 091702Z 29020G28KT 32/M03 A2972 RMK A01 T03191027  RH  011%=      5-min Rain = 0
KLA1 091703Z 29016G24KT 32/M03 A2972 RMK A01 T03171027  RH  011%=      5-min Rain = 0
KLA1 091704Z 29020G25KT 32/M03 A2972 RMK A01 T03151028  RH  011%=      5-min Rain = 0
KLA1 091705Z 30019KT 31/M03 A2972 RMK A01 T03141027  RH  011%=      5-min Rain = 0
KLA1 091706Z 30020KT 31/M03 A2972 RMK A01 T03141028  RH  011%=      5-min Rain = 0
KLA1 091707Z 29019KT 31/M03 A2972 RMK A01 T03141028  RH  011%=      5-min Rain = 0
KLA1 091708Z 30017G24KT 31/M03 A2972 RMK A01 T03131028  RH  011%=      5-min Rain = 0
KLA1 091709Z 30016KT 31/M03 A2972 RMK A01 T03131027  RH  011%=      5-min Rain = 0
KLA1 091710Z 28014G20KT 31/M03 A2972 RMK A01 T03131027  RH  011%=      5-min Rain = 0
KLA1 091711Z 28011G16KT 31/M03 A2972 RMK A01 T03141025  RH  011%=      5-min Rain = 0
KLA1 091712Z 30012KT 32/M02 A2972 RMK A01 T03171023  RH  011%=      5-min Rain = 0
KLA1 091713Z 31013KT 32/M02 A2972 RMK A01 T03201022  RH  011%=      5-min Rain = 0
KLA1 091714Z 31014KT 32/M02 A2972 RMK A01 T03211022  RH  011%=      5-min Rain = 0
KLA1 091715Z 31011KT 32/M02 A2972 RMK A01 T03211021  RH  011%=      5-min Rain = 0
KLA1 091716Z 29014G19KT 32/M02 A2972 RMK A01 T03231020  RH  011%=      5-min Rain = 0
KLA1 091717Z 29014KT 32/M02 A2972 RMK A01 T03231022  RH  011%=      5-min Rain = 0
KLA1 091718Z 30014G21KT 32/M02 A2971 RMK A01 T03211022  RH  011%=      5-min Rain = 0
KLA1 091719Z 28013G18KT 32/M02 A2971 RMK A01 T03201022  RH  011%=      5-min Rain = 0
KLA1 091720Z 28014KT 32/M02 A2971 RMK A01 T03211020  RH  011%=      5-min Rain = 0
KLA1 091721Z 28016KT 32/M02 A2971 RMK A01 T03231019  RH  011%=      5-min Rain = 0
KLA1 091722Z 29014KT 32/M02 A2972 RMK A01 T03241019  RH  011%=      5-min Rain = 0
KLA1 091723Z 30012KT 32/M02 A2972 RMK A01 T03231020  RH  011%=      5-min Rain = 0
KLA1 091724Z 29016G23KT 32/M02 A2972 RMK A01 T03231018  RH  011%=      5-min Rain = 0
KLA1 091725Z 30014KT 32/M02 A2972 RMK A01 T03241019  RH  011%=      5-min Rain = 0
KLA1 091726Z 30017G22KT 32/M02 A2972 RMK A01 T03231021  RH  011%=      5-min Rain = 0
KLA1 091727Z 29011KT 32/M02 A2971 RMK A01 T03201022  RH  011%=      5-min Rain = 0
KLA1 091728Z 30016KT 32/M02 A2972 RMK A01 T03201020  RH  011%=      5-min Rain = 0
KLA1 091729Z 30017KT 32/M02 A2972 RMK A01 T03201022  RH  011%=      5-min Rain = 0
KLA1 091730Z 29018KT 32/M02 A2972 RMK A01 T03191021  RH  011%=      5-min Rain = 0
KLA1 091731Z 30015G20KT 32/M02 A2972 RMK A01 T03181021  RH  011%=      5-min Rain = 0
KLA1 091732Z 28014KT 32/M02 A2971 RMK A01 T03181020  RH  011%=      5-min Rain = 0
KLA1 091733Z 30012KT 32/M02 A2972 RMK A01 T03181020  RH  011%=      5-min Rain = 0
KLA1 091734Z 32017KT 32/M02 A2972 RMK A01 T03181019  RH  011%=      5-min Rain = 0
KLA1 091735Z 30018G25KT 32/M02 A2972 RMK A01 T03181019  RH  011%=      5-min Rain = 0
KLA1 091736Z 31018KT 32/M02 A2972 RMK A01 T03181020  RH  011%=      5-min Rain = 0
KLA1 091737Z 30017KT 32/M02 A2972 RMK A01 T03181020  RH  011%=      5-min Rain = 0
KLA1 091738Z 30019KT 32/M02 A2972 RMK A01 T03201020  RH  011%=      5-min Rain = 0
KLA1 091739Z 30017KT 32/M02 A2972 RMK A01 T03201021  RH  011%=      5-min Rain = 0
KLA1 091740Z 29018KT 32/M02 A2972 RMK A01 T03201021  RH  011%=      5-min Rain = 0
KLA1 091741Z 29018G25KT 32/M02 A2972 RMK A01 T03201022  RH  011%=      5-min Rain = 0
KLA1 091742Z 30015G21KT 32/M02 A2972 RMK A01 T03191020  RH  011%=      5-min Rain = 0
KLA1 091743Z 30015G20KT 32/M02 A2972 RMK A01 T03191020  RH  011%=      5-min Rain = 0
KLA1 091744Z 28018KT 32/M02 A2972 RMK A01 T03191020  RH  011%=      5-min Rain = 0
KLA1 091745Z 28014KT 32/M02 A2972 RMK A01 T03171022  RH  011%=      5-min Rain = 0
KLA1 091746Z 29013KT 32/M02 A2972 RMK A01 T03151021  RH  011%=      5-min Rain = 0
KLA1 091747Z 30012KT 32/M02 A2972 RMK A01 T03161019  RH  011%=      5-min Rain = 0
KLA1 091748Z 30014KT 32/M02 A2972 RMK A01 T03181020  RH  011%=      5-min Rain = 0
KLA1 091749Z 30013G18KT 32/M02 A2972 RMK A01 T03191019  RH  011%=      5-min Rain = 0
KLA1 091750Z 28016G22KT 32/M02 A2972 RMK A01 T03191020  RH  011%=      5-min Rain = 0
KLA1 091751Z 31014G20KT 32/M02 A2971 RMK A01 T03211019  RH  011%=      5-min Rain = 0
KLA1 091752Z 29019G24KT 33/M02 A2971 RMK A01 T03251020  RH  011%=      5-min Rain = 0
KLA1 091753Z 29018G23KT 32/M02 A2972 RMK A01 T03231023  RH  011%=      5-min Rain = 0
KLA1 091754Z 29019KT 32/M02 A2972 RMK A01 T03201022  RH  011%=      5-min Rain = 0
KLA1 091755Z 28014KT 32/M02 A2972 RMK A01 T03191022  RH  011%=      5-min Rain = 0
KLA1 091756Z 29014KT 32/M02 A2972 RMK A01 T03191020  RH  011%=      5-min Rain = 0
KLA1 091757Z 29012KT 32/M02 A2972 RMK A01 T03191021  RH  011%=      5-min Rain = 0
KLA1 091758Z 28011KT 32/M02 A2971 RMK A01 T03201020  RH  011%=      5-min Rain = 0
KLA1 091759Z 28010G16KT 32/M02 A2971 RMK A01 T03211019  RH  011%=      5-min Rain = 0
KLA1 091800Z 28014KT 32/M02 A2971 RMK A01 T03241019  RH  011%=      5-min Rain = 0
KLA1 091801Z 28020KT 32/M02 A2971 RMK A01 T03241022  RH  011%=      5-min Rain = 0
KLA1 091802Z 28020KT 32/M02 A2971 RMK A01 T03241023  RH  011%=      5-min Rain = 0
KLA1 091803Z 28017G22KT 32/M02 A2972 RMK A01 T03241023  RH  011%=      5-min Rain = 0
KLA1 091804Z 28018KT 32/M02 A2972 RMK A01 T03231022  RH  011%=      5-min Rain = 0
KLA1 091805Z 29015KT 32/M02 A2972 RMK A01 T03211022  RH  011%=      5-min Rain = 0
KLA1 091806Z 28016G21KT 32/M02 A2972 RMK A01 T03201024  RH  011%=      5-min Rain = 0
KLA1 091807Z 28012G17KT 32/M02 A2971 RMK A01 T03191022  RH  011%=      5-min Rain = 0
KLA1 091808Z 28015KT 32/M02 A2971 RMK A01 T03211021  RH  011%=      5-min Rain = 0
KLA1 091809Z 29016KT 32/M02 A2971 RMK A01 T03231023  RH  011%=      5-min Rain = 0
KLA1 091810Z 28016KT 32/M02 A2971 RMK A01 T03231024  RH  011%=      5-min Rain = 0
KLA1 091811Z 28016KT 32/M02 A2971 RMK A01 T03231024  RH  011%=      5-min Rain = 0
KLA1 091812Z 28013G20KT 32/M02 A2971 RMK A01 T03241022  RH  011%=      5-min Rain = 0
KLA1 091813Z 28018KT 32/M02 A2971 RMK A01 T03241022  RH  011%=      5-min Rain = 0
KLA1 091814Z 28016G21KT 32/M02 A2971 RMK A01 T03241023  RH  011%=      5-min Rain = 0
KLA1 091815Z 30016KT 32/M02 A2971 RMK A01 T03231022  RH  011%=      5-min Rain = 0
KLA1 091816Z 31016KT 32/M02 A2971 RMK A01 T03231022  RH  011%=      5-min Rain = 0
KLA1 091817Z 31014KT 32/M02 A2971 RMK A01 T03231021  RH  011%=      5-min Rain = 0
KLA1 091818Z 29007G13KT 32/M02 A2971 RMK A01 T03221022  RH  011%=      5-min Rain = 0
KLA1 091819Z 27012G19KT 32/M02 A2971 RMK A01 T03241016  RH  011%=      5-min Rain = 0
KLA1 091820Z 27014G20KT 33/M02 A2971 RMK A01 T03281019  RH  011%=      5-min Rain = 0
KLA1 091821Z 25020KT 33/M02 A2971 RMK A01 T03271024  RH  010%=      5-min Rain = 0
KLA1 091822Z 26020G26KT 33/M02 A2971 RMK A01 T03251024  RH  011%=      5-min Rain = 0
KLA1 091823Z 27015KT 33/M02 A2971 RMK A01 T03261022  RH  011%=      5-min Rain = 0
KLA1 091824Z 29016G24KT 33/M02 A2971 RMK A01 T03281020  RH  011%=      5-min Rain = 0
KLA1 091825Z 30017G22KT 33/M02 A2971 RMK A01 T03281021  RH  011%=      5-min Rain = 0
KLA1 091826Z 30015KT 33/M02 A2971 RMK A01 T03261021  RH  011%=      5-min Rain = 0
KLA1 091827Z 30015KT 33/M02 A2971 RMK A01 T03261021  RH  011%=      5-min Rain = 0
KLA1 091828Z 30011KT 33/M02 A2971 RMK A01 T03251023  RH  011%=      5-min Rain = 0
KLA1 091829Z 30013KT 32/M02 A2971 RMK A01 T03241019  RH  011%=      5-min Rain = 0
KLA1 091830Z 30011KT 33/M02 A2971 RMK A01 T03261020  RH  011%=      5-min Rain = 0
KLA1 091831Z 30009KT 33/M02 A2971 RMK A01 T03271018  RH  011%=      5-min Rain = 0
KLA1 091832Z 29012KT 33/M02 A2971 RMK A01 T03281018  RH  011%=      5-min Rain = 0
KLA1 091833Z 28010G19KT 33/M02 A297 RMK A01 T03301019  RH  011%=      5-min Rain = 0
KLA1 091834Z 29015G21KT 33/M02 A297 RMK A01 T03311020  RH  010%=      5-min Rain = 0
KLA1 091835Z 29014KT 33/M02 A297 RMK A01 T03311021  RH  010%=      5-min Rain = 0
KLA1 091836Z 30014KT 33/M02 A297 RMK A01 T03301019  RH  011%=      5-min Rain = 0
KLA1 091837Z 32014G21KT 33/M02 A297 RMK A01 T03311021  RH  010%=      5-min Rain = 0
KLA1 091838Z 31012G18KT 33/M02 A297 RMK A01 T03331020  RH  010%=      5-min Rain = 0
KLA1 091839Z 30010KT 33/M02 A297 RMK A01 T03331023  RH  010%=      5-min Rain = 0
KLA1 091840Z 29012KT 33/M02 A297 RMK A01 T03321021  RH  010%=      5-min Rain = 0
KLA1 091841Z 28013KT 33/M02 A297 RMK A01 T03321020  RH  010%=      5-min Rain = 0
KLA1 091842Z 28018KT 33/M02 A297 RMK A01 T03331021  RH  010%=      5-min Rain = 0
KLA1 091843Z 27015KT 33/M02 A297 RMK A01 T03321024  RH  010%=      5-min Rain = 0
KLA1 091844Z 27019KT 33/M02 A297 RMK A01 T03311023  RH  010%=      5-min Rain = 0
KLA1 091845Z 28016KT 33/M02 A297 RMK A01 T03301024  RH  010%=      5-min Rain = 0
KLA1 091846Z 28016KT 33/M02 A297 RMK A01 T03311024  RH  010%=      5-min Rain = 0
KLA1 091847Z 29013KT 33/M02 A297 RMK A01 T03311022  RH  010%=      5-min Rain = 0
KLA1 091848Z 29010G15KT 33/M02 A297 RMK A01 T03321019  RH  010%=      5-min Rain = 0
KLA1 091849Z 28011KT 34/M02 A297 RMK A01 T03351019  RH  010%=      5-min Rain = 0
KLA1 091850Z 30011KT 34/M02 A297 RMK A01 T03361019  RH  010%=      5-min Rain = 0
KLA1 091851Z 29012KT 34/M02 A297 RMK A01 T03371019  RH  010%=      5-min Rain = 0
KLA1 091852Z 28016G23KT 34/M02 A297 RMK A01 T03371022  RH  010%=      5-min Rain = 0
KLA1 091853Z 28018KT 34/M03 A297 RMK A01 T03361026  RH  010%=      5-min Rain = 0
KLA1 091854Z 27017KT 33/M03 A297 RMK A01 T03341026  RH  010%=      5-min Rain = 0
KLA1 091855Z 28018KT 33/M03 A297 RMK A01 T03321026  RH  010%=      5-min Rain = 0
KLA1 091856Z 26012KT 33/M03 A297 RMK A01 T03301027  RH  010%=      5-min Rain = 0
KLA1 091857Z 26017KT 33/M03 A2969 RMK A01 T03291027  RH  010%=      5-min Rain = 0
KLA1 091858Z 28019G25KT 33/M03 A2969 RMK A01 T03301028  RH  010%=      5-min Rain = 0
KLA1 091859Z 27015G20KT 33/M03 A297 RMK A01 T03281032  RH  010%=      5-min Rain = 0
KLA1 091900Z 28017G24KT 33/M03 A2969 RMK A01 T03261030  RH  010%=      5-min Rain = 0
KLA1 091901Z 28016KT 33/M03 A2969 RMK A01 T03271025  RH  010%=      5-min Rain = 0
KLA1 091902Z 27016G22KT 33/M02 A2969 RMK A01 T03301023  RH  010%=      5-min Rain = 0
KLA1 091903Z 27017KT 33/M02 A297 RMK A01 T03321023  RH  010%=      5-min Rain = 0
KLA1 091904Z 27013G18KT 33/M02 A2969 RMK A01 T03301024  RH  010%=      5-min Rain = 0
KLA1 091905Z 27012KT 33/M02 A2969 RMK A01 T03311023  RH  010%=      5-min Rain = 0
KLA1 091906Z 30012G18KT 34/M02 A2969 RMK A01 T03351021  RH  010%=      5-min Rain = 0
KLA1 091907Z 31016KT 34/M02 A2969 RMK A01 T03391023  RH  010%=      5-min Rain = 0
KLA1 091908Z 30019KT 34/M03 A2969 RMK A01 T03391027  RH  009%=      5-min Rain = 0
KLA1 091909Z 29021KT 34/M03 A2969 RMK A01 T03381027  RH  010%=      5-min Rain = 0
KLA1 091910Z 29016G23KT 34/M03 A2969 RMK A01 T03351028  RH  010%=      5-min Rain = 0
KLA1 091911Z 29018KT 33/M03 A2969 RMK A01 T03341028  RH  010%=      5-min Rain = 0
KLA1 091912Z 31015KT 33/M03 A2969 RMK A01 T03341025  RH  010%=      5-min Rain = 0
KLA1 091913Z 30017KT 34/M03 A2969 RMK A01 T03351028  RH  010%=      5-min Rain = 0
KLA1 091914Z 30017KT 33/M03 A2969 RMK A01 T03331031  RH  010%=      5-min Rain = 0
KLA1 091915Z 29014KT 33/M03 A2969 RMK A01 T03321032  RH  010%=      5-min Rain = 0
KLA1 091916Z 31017G22KT 33/M03 A2969 RMK A01 T03311029  RH  010%=      5-min Rain = 0
KLA1 091917Z 31016KT 33/M03 A2969 RMK A01 T03331029  RH  010%=      5-min Rain = 0
KLA1 091918Z 31013G19KT 33/M03 A2969 RMK A01 T03341029  RH  010%=      5-min Rain = 0
KLA1 091919Z 31015KT 33/M03 A2969 RMK A01 T03341027  RH  010%=      5-min Rain = 0
KLA1 091920Z 30017KT 34/M03 A2969 RMK A01 T03361027  RH  010%=      5-min Rain = 0
KLA1 091921Z 29019G27KT 34/M03 A2969 RMK A01 T03361028  RH  010%=      5-min Rain = 0
KLA1 091922Z 29023KT 34/M03 A2969 RMK A01 T03361033  RH  009%=      5-min Rain = 0
KLA1 091923Z 31018KT 33/M03 A2969 RMK A01 T03341033  RH  009%=      5-min Rain = 0
KLA1 091924Z 31018G24KT 33/M03 A2969 RMK A01 T03341031  RH  009%=      5-min Rain = 0
KLA1 091925Z 31015G20KT 33/M03 A2969 RMK A01 T03331032  RH  009%=      5-min Rain = 0
KLA1 091926Z 29017KT 33/M03 A2969 RMK A01 T03331028  RH  010%=      5-min Rain = 0
KLA1 091927Z 29016KT 34/M03 A2969 RMK A01 T03351028  RH  010%=      5-min Rain = 0
KLA1 091928Z 28013G18KT 34/M03 A2969 RMK A01 T03351027  RH  010%=      5-min Rain = 0
KLA1 091929Z 29013KT 34/M03 A2969 RMK A01 T03361026  RH  010%=      5-min Rain = 0
KLA1 091930Z 28013KT 34/M03 A2969 RMK A01 T03381027  RH  010%=      5-min Rain = 0
KLA1 091931Z 28010KT 34/M03 A2969 RMK A01 T03391029  RH  009%=      5-min Rain = 0
KLA1 091932Z 29016KT 34/M03 A2969 RMK A01 T03391028  RH  009%=      5-min Rain = 0
KLA1 091933Z 28016KT 34/M03 A2968 RMK A01 T03381030  RH  009%=      5-min Rain = 0
KLA1 091934Z 26013KT 34/M03 A2968 RMK A01 T03361028  RH  010%=      5-min Rain = 0
KLA1 091935Z 27014G21KT 34/M03 A2968 RMK A01 T03391026  RH  010%=      5-min Rain = 0
KLA1 091936Z 27016G21KT 34/M03 A2968 RMK A01 T03411029  RH  009%=      5-min Rain = 0
KLA1 091937Z 28015KT 34/M03 A2969 RMK A01 T03391031  RH  009%=      5-min Rain = 0
KLA1 091938Z 27013G18KT 34/M03 A2969 RMK A01 T03361031  RH  009%=      5-min Rain = 0
KLA1 091939Z 29012KT 33/M03 A2969 RMK A01 T03331029  RH  010%=      5-min Rain = 0
KLA1 091940Z 30014KT 34/M03 A2969 RMK A01 T03351027  RH  010%=      5-min Rain = 0
KLA1 091941Z 30012KT 34/M03 A2969 RMK A01 T03371026  RH  010%=      5-min Rain = 0
KLA1 091942Z 29012G17KT 34/M03 A2968 RMK A01 T03391029  RH  009%=      5-min Rain = 0
KLA1 091943Z 29013G18KT 34/M03 A2968 RMK A01 T03381029  RH  009%=      5-min Rain = 0
KLA1 091944Z 32013G18KT 34/M03 A2968 RMK A01 T03381030  RH  009%=      5-min Rain = 0
KLA1 091945Z 31013KT 34/M03 A2968 RMK A01 T03381028  RH  009%=      5-min Rain = 0
KLA1 091946Z 30013KT 34/M03 A2968 RMK A01 T03401027  RH  009%=      5-min Rain = 0
KLA1 091947Z 29018G23KT 34/M03 A2968 RMK A01 T03411029  RH  009%=      5-min Rain = 0
KLA1 091948Z 29016G22KT 34/M03 A2968 RMK A01 T03391030  RH  009%=      5-min Rain = 0
KLA1 091949Z 29017KT 34/M03 A2968 RMK A01 T03381030  RH  009%=      5-min Rain = 0
KLA1 091950Z 28015KT 34/M03 A2968 RMK A01 T03381030  RH  009%=      5-min Rain = 0
KLA1 091951Z 27014G20KT 34/M03 A2968 RMK A01 T03391029  RH  009%=      5-min Rain = 0
KLA1 091952Z 28018G23KT 34/M03 A2968 RMK A01 T03411032  RH  009%=      5-min Rain = 0
KLA1 091953Z 30018G25KT 34/M03 A2968 RMK A01 T03381034  RH  009%=      5-min Rain = 0
KLA1 091954Z 28012G17KT 34/M03 A2968 RMK A01 T03361034  RH  009%=      5-min Rain = 0
KLA1 091955Z 28015KT 34/M03 A2968 RMK A01 T03351032  RH  009%=      5-min Rain = 0
KLA1 091956Z 28012KT 34/M03 A2968 RMK A01 T03371031  RH  009%=      5-min Rain = 0
KLA1 091957Z 28015G22KT 34/M03 A2968 RMK A01 T03371029  RH  009%=      5-min Rain = 0
KLA1 091958Z 30017G22KT 34/M03 A2968 RMK A01 T03391030  RH  009%=      5-min Rain = 0
KLA1 091959Z 29020G25KT 34/M03 A2968 RMK A01 T03401031  RH  009%=      5-min Rain = 0
KLA1 092000Z 30020G26KT 34/M03 A2968 RMK A01 T03391032  RH  009%=      5-min Rain = 0
KLA1 092001Z 31017KT 34/M03 A2968 RMK A01 T03391032  RH  009%=      5-min Rain = 0
KLA1 092002Z 29015G20KT 34/M03 A2968 RMK A01 T03381033  RH  009%=      5-min Rain = 0
KLA1 092003Z 29016KT 34/M03 A2968 RMK A01 T03381033  RH  009%=      5-min Rain = 0
KLA1 092004Z 29017G24KT 34/M03 A2968 RMK A01 T03371033  RH  009%=      5-min Rain = 0
KLA1 092005Z 30012KT 34/M03 A2968 RMK A01 T03361032  RH  009%=      5-min Rain = 0
KLA1 092006Z 31015G22KT 34/M03 A2968 RMK A01 T03371031  RH  009%=      5-min Rain = 0
KLA1 092007Z 32016G21KT 34/M03 A2968 RMK A01 T03391031  RH  009%=      5-min Rain = 0
KLA1 092008Z 31015G20KT 34/M03 A2968 RMK A01 T03421029  RH  009%=      5-min Rain = 0
KLA1 092009Z 29017KT 34/M03 A2968 RMK A01 T03421030  RH  009%=      5-min Rain = 0
KLA1 092010Z 29012KT 34/M03 A2968 RMK A01 T03401031  RH  009%=      5-min Rain = 0
KLA1 092011Z 30012G17KT 34/M03 A2968 RMK A01 T03391029  RH  009%=      5-min Rain = 0
KLA1 092012Z 31013KT 34/M03 A2968 RMK A01 T03401029  RH  009%=      5-min Rain = 0
KLA1 092013Z 30014G20KT 34/M03 A2968 RMK A01 T03411029  RH  009%=      5-min Rain = 0
KLA1 092014Z 31010KT 34/M03 A2968 RMK A01 T03411030  RH  009%=      5-min Rain = 0
KLA1 092015Z 29019G26KT 34/M03 A2968 RMK A01 T03431030  RH  009%=      5-min Rain = 0
KLA1 092016Z 28019G26KT 34/M04 A2968 RMK A01 T03431039  RH  008%=      5-min Rain = 0
KLA1 092017Z 29018G23KT 34/M04 A2968 RMK A01 T03401040  RH  009%=      5-min Rain = 0
KLA1 092018Z 29017KT 34/M04 A2968 RMK A01 T03401037  RH  009%=      5-min Rain = 0
KLA1 092019Z 30018KT 34/M04 A2968 RMK A01 T03411038  RH  009%=      5-min Rain = 0
KLA1 092020Z 28017KT 34/M04 A2968 RMK A01 T03421038  RH  009%=      5-min Rain = 0
KLA1 092021Z 29016G21KT 34/M04 A2968 RMK A01 T03401038  RH  009%=      5-min Rain = 0
KLA1 092022Z 28014G21KT 34/M04 A2968 RMK A01 T03391036  RH  009%=      5-min Rain = 0
KLA1 092023Z 27019KT 34/M04 A2967 RMK A01 T03401035  RH  009%=      5-min Rain = 0
KLA1 092024Z 27016KT 34/M04 A2968 RMK A01 T03411035  RH  009%=      5-min Rain = 0
KLA1 092025Z 27011KT 34/M03 A2967 RMK A01 T03401034  RH  009%=      5-min Rain = 0
KLA1 092026Z 28011KT 34/M03 A2967 RMK A01 T03411033  RH  009%=      5-min Rain = 0
KLA1 092027Z 28013G20KT 34/M03 A2967 RMK A01 T03411031  RH  009%=      5-min Rain = 0
KLA1 092028Z 30016G21KT 34/M03 A2967 RMK A01 T03421031  RH  009%=      5-min Rain = 0
KLA1 092029Z 30017KT 34/M03 A2967 RMK A01 T03421033  RH  009%=      5-min Rain = 0
KLA1 092030Z 30014KT 34/M03 A2967 RMK A01 T03411033  RH  009%=      5-min Rain = 0
KLA1 092031Z 29008KT 34/M03 A2967 RMK A01 T03401033  RH  009%=      5-min Rain = 0
KLA1 092032Z 29008KT 34/M03 A2967 RMK A01 T03401030  RH  009%=      5-min Rain = 0
KLA1 092033Z 32008KT 34/M03 A2967 RMK A01 T03421031  RH  009%=      5-min Rain = 0
KLA1 092034Z 29015G20KT 34/M03 A2967 RMK A01 T03421031  RH  009%=      5-min Rain = 0
KLA1 092035Z 27015KT 34/M04 A2967 RMK A01 T03431035  RH  009%=      5-min Rain = 0
KLA1 092036Z 28016KT 34/M04 A2967 RMK A01 T03431041  RH  008%=      5-min Rain = 0
KLA1 092037Z 29015KT 34/M04 A2967 RMK A01 T03441041  RH  008%=      5-min Rain = 0
KLA1 092038Z 28013G18KT 35/M04 A2967 RMK A01 T03451041  RH  008%=      5-min Rain = 0
KLA1 092039Z 27014G19KT 35/M04 A2967 RMK A01 T03451040  RH  008%=      5-min Rain = 0
KLA1 092040Z 26013KT 34/M04 A2967 RMK A01 T03441042  RH  008%=      5-min Rain = 0
KLA1 092041Z 27013KT 34/M04 A2967 RMK A01 T03411042  RH  008%=      5-min Rain = 0
KLA1 092042Z 28012G17KT 34/M04 A2967 RMK A01 T03411039  RH  009%=      5-min Rain = 0
KLA1 092043Z 28015KT 34/M04 A2967 RMK A01 T03421039  RH  009%=      5-min Rain = 0
KLA1 092044Z 28015KT 34/M04 A2967 RMK A01 T03411039  RH  009%=      5-min Rain = 0
KLA1 092045Z 28016KT 34/M04 A2967 RMK A01 T03401038  RH  009%=      5-min Rain = 0
KLA1 092046Z 27013G19KT 34/M04 A2967 RMK A01 T03401036  RH  009%=      5-min Rain = 0
KLA1 092047Z 28014G19KT 34/M04 A2967 RMK A01 T03381037  RH  009%=      5-min Rain = 0
KLA1 092048Z 27012KT 34/M04 A2967 RMK A01 T03391037  RH  009%=      5-min Rain = 0
KLA1 092049Z 28012KT 34/M04 A2967 RMK A01 T03391037  RH  009%=      5-min Rain = 0
KLA1 092050Z 29014KT 34/M04 A2967 RMK A01 T03381037  RH  009%=      5-min Rain = 0
KLA1 092051Z 31013G18KT 34/M04 A2967 RMK A01 T03391035  RH  009%=      5-min Rain = 0
KLA1 092052Z 31014G19KT 34/M03 A2967 RMK A01 T03411034  RH  009%=      5-min Rain = 0
KLA1 092053Z 29018G27KT 34/M03 A2967 RMK A01 T03431034  RH  009%=      5-min Rain = 0
KLA1 092054Z 28022KT 34/M04 A2967 RMK A01 T03441036  RH  009%=      5-min Rain = 0
KLA1 092055Z 29016KT 34/M04 A2967 RMK A01 T03431038  RH  009%=      5-min Rain = 0
KLA1 092056Z 28016G21KT 34/M04 A2967 RMK A01 T03421038  RH  009%=      5-min Rain = 0
KLA1 092057Z 28013G20KT 34/M04 A2967 RMK A01 T03431039  RH  008%=      5-min Rain = 0
KLA1 092058Z 27017G22KT 34/M04 A2967 RMK A01 T03441039  RH  008%=      5-min Rain = 0
KLA1 092059Z 28013KT 34/M04 A2967 RMK A01 T03421040  RH  008%=      5-min Rain = 0
KLA1 092100Z 26016G23KT 34/M04 A2967 RMK A01 T03421037  RH  009%=      5-min Rain = 0
KLA1 092101Z 27014G19KT 34/M04 A2967 RMK A01 T03431038  RH  009%=      5-min Rain = 0
KLA1 092102Z 28016G22KT 34/M04 A2967 RMK A01 T03441036  RH  009%=      5-min Rain = 0
KLA1 092103Z 27020G25KT 35/M04 A2967 RMK A01 T03461040  RH  008%=      5-min Rain = 0
KLA1 092104Z 28019G24KT 34/M04 A2967 RMK A01 T03441043  RH  008%=      5-min Rain = 0
KLA1 092105Z 26018G23KT 34/M04 A2967 RMK A01 T03441041  RH  008%=      5-min Rain = 0
KLA1 092106Z 28016KT 34/M04 A2967 RMK A01 T03431041  RH  008%=      5-min Rain = 0
KLA1 092107Z 29013KT 34/M04 A2967 RMK A01 T03441041  RH  008%=      5-min Rain = 0
KLA1 092108Z 29016G21KT 34/M04 A2967 RMK A01 T03441041  RH  008%=      5-min Rain = 0
KLA1 092109Z 29016KT 34/M04 A2967 RMK A01 T03431042  RH  008%=      5-min Rain = 0
KLA1 092110Z 27019G24KT 34/M04 A2966 RMK A01 T03421043  RH  008%=      5-min Rain = 0
KLA1 092111Z 29016KT 34/M04 A2966 RMK A01 T03421041  RH  008%=      5-min Rain = 0
KLA1 092112Z 29020G28KT 35/M04 A2967 RMK A01 T03451040  RH  008%=      5-min Rain = 0
KLA1 092113Z 28025G31KT 34/M04 A2967 RMK A01 T03441042  RH  008%=      5-min Rain = 0
KLA1 092114Z 28021G27KT 34/M04 A2967 RMK A01 T03401043  RH  008%=      5-min Rain = 0
KLA1 092115Z 29018G27KT 34/M04 A2967 RMK A01 T03391043  RH  008%=      5-min Rain = 0
KLA1 092116Z 28015KT 34/M04 A2967 RMK A01 T03381042  RH  009%=      5-min Rain = 0
KLA1 092117Z 29012KT 34/M04 A2967 RMK A01 T03391041  RH  009%=      5-min Rain = 0
KLA1 092118Z 29014KT 34/M04 A2966 RMK A01 T03411039  RH  009%=      5-min Rain = 0
KLA1 092119Z 29015KT 34/M04 A2966 RMK A01 T03421041  RH  008%=      5-min Rain = 0
KLA1 092120Z 29016G22KT 34/M04 A2966 RMK A01 T03411040  RH  009%=      5-min Rain = 0
KLA1 092121Z 27013KT 34/M04 A2966 RMK A01 T03431039  RH  008%=      5-min Rain = 0
KLA1 092122Z 31018G24KT 35/M04 A2967 RMK A01 T03461041  RH  008%=      5-min Rain = 0
KLA1 092123Z 30018KT 34/M05 A2966 RMK A01 T03441045  RH  008%=      5-min Rain = 0
KLA1 092124Z 32012KT 34/M04 A2966 RMK A01 T03431042  RH  008%=      5-min Rain = 0
KLA1 092125Z 31014KT 34/M04 A2966 RMK A01 T03441041  RH  008%=      5-min Rain = 0
KLA1 092126Z 31014KT 35/M04 A2966 RMK A01 T03451040  RH  008%=      5-min Rain = 0
KLA1 092127Z 30014G19KT 35/M04 A2967 RMK A01 T03471039  RH  008%=      5-min Rain = 0
KLA1 092128Z 30017KT 35/M04 A2966 RMK A01 T03481042  RH  008%=      5-min Rain = 0
KLA1 092129Z 29016KT 35/M04 A2966 RMK A01 T03461043  RH  008%=      5-min Rain = 0
KLA1 092130Z 29013KT 34/M04 A2966 RMK A01 T03431044  RH  008%=      5-min Rain = 0
KLA1 092131Z 31013G18KT 34/M05 A2966 RMK A01 T03391046  RH  008%=      5-min Rain = 0
KLA1 092132Z 30008KT 34/M05 A2966 RMK A01 T03351047  RH  008%=      5-min Rain = 0
KLA1 092133Z 31007KT 33/M05 A2966 RMK A01 T03331046  RH  009%=      5-min Rain = 0
KLA1 092134Z 31012KT 33/M05 A2966 RMK A01 T03321045  RH  009%=      5-min Rain = 0
KLA1 092135Z 31013KT 33/M05 A2966 RMK A01 T03341045  RH  009%=      5-min Rain = 0
KLA1 092136Z 31015KT 34/M05 A2966 RMK A01 T03361046  RH  008%=      5-min Rain = 0
KLA1 092137Z 31018G26KT 34/M05 A2966 RMK A01 T03391045  RH  008%=      5-min Rain = 0
KLA1 092138Z 32016G23KT 34/M05 A2966 RMK A01 T03401047  RH  008%=      5-min Rain = 0
KLA1 092139Z 31012G18KT 34/M05 A2967 RMK A01 T03411047  RH  008%=      5-min Rain = 0
KLA1 092140Z 31016KT 34/M05 A2966 RMK A01 T03421046  RH  008%=      5-min Rain = 0
KLA1 092141Z 32015KT 34/M05 A2966 RMK A01 T03401047  RH  008%=      5-min Rain = 0
KLA1 092142Z 32016G22KT 34/M05 A2966 RMK A01 T03391047  RH  008%=      5-min Rain = 0
KLA1 092143Z 30017G22KT 34/M05 A2967 RMK A01 T03401045  RH  008%=      5-min Rain = 0
KLA1 092144Z 30014G19KT 34/M04 A2967 RMK A01 T03411044  RH  008%=      5-min Rain = 0
KLA1 092145Z 30014KT 34/M04 A2967 RMK A01 T03431042  RH  008%=      5-min Rain = 0
KLA1 092146Z 31013G19KT 34/M04 A2966 RMK A01 T03441042  RH  008%=      5-min Rain = 0
KLA1 092147Z 30011KT 34/M04 A2966 RMK A01 T03441043  RH  008%=      5-min Rain = 0
KLA1 092148Z 30012KT 34/M05 A2966 RMK A01 T03431045  RH  008%=      5-min Rain = 0
KLA1 092149Z 30009KT 34/M05 A2966 RMK A01 T03401047  RH  008%=      5-min Rain = 0
KLA1 092150Z 30008KT 34/M05 A2966 RMK A01 T03391047  RH  008%=      5-min Rain = 0
KLA1 092151Z 30009KT 34/M05 A2966 RMK A01 T03381045  RH  008%=      5-min Rain = 0
KLA1 092152Z 30012KT 34/M05 A2966 RMK A01 T03391046  RH  008%=      5-min Rain = 0
KLA1 092153Z 29011KT 34/M05 A2966 RMK A01 T03401049  RH  008%=      5-min Rain = 0
KLA1 092154Z 29016G21KT 34/M05 A2966 RMK A01 T03411047  RH  008%=      5-min Rain = 0
KLA1 092155Z 28013G18KT 34/M05 A2966 RMK A01 T03431045  RH  008%=      5-min Rain = 0
KLA1 092156Z 27015KT 35/M04 A2966 RMK A01 T03451044  RH  008%=      5-min Rain = 0
KLA1 092157Z 29016G22KT 35/M05 A2966 RMK A01 T03461047  RH  008%=      5-min Rain = 0
KLA1 092158Z 29017G22KT 35/M05 A2966 RMK A01 T03451050  RH  008%=      5-min Rain = 0
KLA1 092159Z 29016G23KT 34/M05 A2966 RMK A01 T03441050  RH  008%=      5-min Rain = 0
KLA1 092200Z 29017KT 34/M05 A2966 RMK A01 T03431052  RH  008%=      5-min Rain = 0
KLA1 092201Z 28013KT 34/M05 A2966 RMK A01 T03421050  RH  008%=      5-min Rain = 0
KLA1 092202Z 28014G19KT 34/M05 A2966 RMK A01 T03431049  RH  008%=      5-min Rain = 0
KLA1 092203Z 28016KT 34/M05 A2966 RMK A01 T03441052  RH  008%=      5-min Rain = 0
KLA1 092204Z 28015KT 34/M05 A2966 RMK A01 T03421053  RH  008%=      5-min Rain = 0
KLA1 092205Z 27014KT 34/M05 A2966 RMK A01 T03391054  RH  008%=      5-min Rain = 0
KLA1 092206Z 28018KT 34/M05 A2966 RMK A01 T03391054  RH  008%=      5-min Rain = 0
KLA1 092207Z 30022G28KT 34/M06 A2966 RMK A01 T03391055  RH  008%=      5-min Rain = 0
KLA1 092208Z 31020G25KT 34/M06 A2966 RMK A01 T03391058  RH  008%=      5-min Rain = 0
KLA1 092209Z 30017KT 34/M06 A2966 RMK A01 T03381058  RH  008%=      5-min Rain = 0
KLA1 092210Z 31016KT 34/M06 A2966 RMK A01 T03391058  RH  007%=      5-min Rain = 0
KLA1 092211Z 31011KT 34/M06 A2966 RMK A01 T03381060  RH  007%=      5-min Rain = 0
KLA1 092212Z 30009KT 34/M06 A2966 RMK A01 T03391059  RH  007%=      5-min Rain = 0
KLA1 092213Z 30009KT 34/M06 A2966 RMK A01 T03391059  RH  007%=      5-min Rain = 0
KLA1 092214Z 28008KT 34/M06 A2966 RMK A01 T03411058  RH  007%=      5-min Rain = 0
KLA1 092215Z 29009KT 34/M06 A2966 RMK A01 T03411057  RH  007%=      5-min Rain = 0
KLA1 092216Z 29012G19KT 34/M05 A2966 RMK A01 T03411054  RH  008%=      5-min Rain = 0
KLA1 092217Z 31016KT 34/M06 A2966 RMK A01 T03431055  RH  007%=      5-min Rain = 0
KLA1 092218Z 31018KT 34/M06 A2966 RMK A01 T03441056  RH  007%=      5-min Rain = 0
KLA1 092219Z 30014G19KT 34/M06 A2966 RMK A01 T03441059  RH  007%=      5-min Rain = 0
KLA1 092220Z 29017KT 34/M06 A2966 RMK A01 T03431059  RH  007%=      5-min Rain = 0
KLA1 092221Z 30012KT 34/M06 A2966 RMK A01 T03431057  RH  007%=      5-min Rain = 0
KLA1 092222Z 30015KT 34/M06 A2966 RMK A01 T03441058  RH  007%=      5-min Rain = 0
KLA1 092223Z 29016KT 34/M06 A2966 RMK A01 T03441060  RH  007%=      5-min Rain = 0
KLA1 092224Z 30015KT 35/M06 A2966 RMK A01 T03451061  RH  007%=      5-min Rain = 0
KLA1 092225Z 31015G21KT 34/M06 A2966 RMK A01 T03441059  RH  007%=      5-min Rain = 0
KLA1 092226Z 32015KT 34/M06 A2966 RMK A01 T03441061  RH  007%=      5-min Rain = 0
KLA1 092227Z 32011KT 34/M06 A2966 RMK A01 T03431063  RH  007%=      5-min Rain = 0
KLA1 092228Z 31010KT 34/M06 A2966 RMK A01 T03411061  RH  007%=      5-min Rain = 0
KLA1 092229Z 30019G24KT 34/M06 A2966 RMK A01 T03421060  RH  007%=      5-min Rain = 0
KLA1 092230Z 31017G22KT 34/M06 A2966 RMK A01 T03421063  RH  007%=      5-min Rain = 0
KLA1 092231Z 31014G19KT 34/M06 A2966 RMK A01 T03421063  RH  007%=      5-min Rain = 0
KLA1 092232Z 31014KT 34/M06 A2966 RMK A01 T03421063  RH  007%=      5-min Rain = 0
KLA1 092233Z 30013G19KT 34/M06 A2966 RMK A01 T03411064  RH  007%=      5-min Rain = 0
KLA1 092234Z 31015KT 34/M06 A2966 RMK A01 T03411063  RH  007%=      5-min Rain = 0
KLA1 092235Z 30018KT 34/M06 A2966 RMK A01 T03411063  RH  007%=      5-min Rain = 0
KLA1 092236Z 31016KT 34/M07 A2966 RMK A01 T03411065  RH  007%=      5-min Rain = 0
KLA1 092237Z 30014G19KT 34/M06 A2966 RMK A01 T03401064  RH  007%=      5-min Rain = 0
KLA1 092238Z 30015KT 34/M06 A2966 RMK A01 T03421063  RH  007%=      5-min Rain = 0
KLA1 092239Z 31015G20KT 34/M06 A2966 RMK A01 T03421064  RH  007%=      5-min Rain = 0
KLA1 092240Z 30013KT 34/M07 A2966 RMK A01 T03421067  RH  007%=      5-min Rain = 0
KLA1 092241Z 30010G15KT 34/M07 A2966 RMK A01 T03411068  RH  007%=      5-min Rain = 0
KLA1 092242Z 30013KT 34/M07 A2966 RMK A01 T03421067  RH  007%=      5-min Rain = 0
KLA1 092243Z 31013G18KT 34/M07 A2966 RMK A01 T03421068  RH  007%=      5-min Rain = 0
KLA1 092244Z 31016G21KT 34/M07 A2966 RMK A01 T03421067  RH  007%=      5-min Rain = 0
KLA1 092245Z 32016G23KT 34/M07 A2966 RMK A01 T03431067  RH  007%=      5-min Rain = 0
KLA1 092246Z 31014KT 34/M07 A2966 RMK A01 T03431066  RH  007%=      5-min Rain = 0
KLA1 092247Z 29016KT 34/M07 A2966 RMK A01 T03441065  RH  007%=      5-min Rain = 0
KLA1 092248Z 29019KT 34/M07 A2966 RMK A01 T03431070  RH  007%=      5-min Rain = 0
KLA1 092249Z 29019KT 34/M07 A2966 RMK A01 T03421070  RH  007%=      5-min Rain = 0
KLA1 092250Z 29015KT 34/M07 A2966 RMK A01 T03411069  RH  007%=      5-min Rain = 0
KLA1 092251Z 29019G24KT 34/M07 A2966 RMK A01 T03411068  RH  007%=      5-min Rain = 0
KLA1 092252Z 32015G20KT 34/M07 A2966 RMK A01 T03411068  RH  007%=      5-min Rain = 0
KLA1 092253Z 32015G23KT 34/M07 A2966 RMK A01 T03411067  RH  007%=      5-min Rain = 0
KLA1 092254Z 31014G20KT 34/M07 A2966 RMK A01 T03431066  RH  007%=      5-min Rain = 0
KLA1 092255Z 32015G20KT 34/M07 A2966 RMK A01 T03431067  RH  007%=      5-min Rain = 0
KLA1 092256Z 34011G17KT 34/M07 A2966 RMK A01 T03431067  RH  007%=      5-min Rain = 0
KLA1 092257Z 33011G17KT 34/M07 A2966 RMK A01 T03411068  RH  007%=      5-min Rain = 0
KLA1 092258Z 32015KT 34/M07 A2966 RMK A01 T03391069  RH  007%=      5-min Rain = 0
KLA1 092259Z 30014KT 34/M07 A2966 RMK A01 T03391068  RH  007%=      5-min Rain = 0
KLA1 092300Z 30015KT 34/M07 A2966 RMK A01 T03391069  RH  007%=      5-min Rain = 0
KLA1 092301Z 30012G17KT 34/M07 A2966 RMK A01 T03381067  RH  007%=      5-min Rain = 0
KLA1 092302Z 27011KT 34/M06 A2966 RMK A01 T03391063  RH  007%=      5-min Rain = 0
KLA1 092303Z 29014KT 34/M06 A2966 RMK A01 T03411063  RH  007%=      5-min Rain = 0
KLA1 092304Z 28011G16KT 34/M06 A2966 RMK A01 T03411064  RH  007%=      5-min Rain = 0
KLA1 092305Z 29012G17KT 34/M06 A2966 RMK A01 T03411064  RH  007%=      5-min Rain = 0
KLA1 092306Z 28013KT 34/M06 A2966 RMK A01 T03411064  RH  007%=      5-min Rain = 0
KLA1 092307Z 27014KT 34/M07 A2966 RMK A01 T03401067  RH  007%=      5-min Rain = 0
KLA1 092308Z 27014KT 34/M07 A2966 RMK A01 T03401066  RH  007%=      5-min Rain = 0
KLA1 092309Z 27013KT 34/M07 A2966 RMK A01 T03391068  RH  007%=      5-min Rain = 0
KLA1 092310Z 25014KT 34/M07 A2966 RMK A01 T03381068  RH  007%=      5-min Rain = 0
KLA1 092311Z 26014KT 34/M07 A2966 RMK A01 T03371070  RH  007%=      5-min Rain = 0
KLA1 092312Z 28012G18KT 34/M07 A2966 RMK A01 T03361069  RH  007%=      5-min Rain = 0
KLA1 092313Z 27010KT 34/M07 A2966 RMK A01 T03371068  RH  007%=      5-min Rain = 0
KLA1 092314Z 27010KT 34/M07 A2966 RMK A01 T03381068  RH  007%=      5-min Rain = 0
KLA1 092315Z 26012KT 34/M07 A2966 RMK A01 T03381068  RH  007%=      5-min Rain = 0
KLA1 092316Z 27014KT 34/M07 A2966 RMK A01 T03391067  RH  007%=      5-min Rain = 0
KLA1 092317Z 27014KT 34/M07 A2966 RMK A01 T03391068  RH  007%=      5-min Rain = 0
KLA1 092318Z 29014KT 34/M07 A2966 RMK A01 T03381068  RH  007%=      5-min Rain = 0
KLA1 092319Z 28013KT 34/M07 A2966 RMK A01 T03391067  RH  007%=      5-min Rain = 0
KLA1 092320Z 26012KT 34/M07 A2966 RMK A01 T03391068  RH  007%=      5-min Rain = 0
KLA1 092321Z 26013KT 34/M07 A2966 RMK A01 T03391070  RH  007%=      5-min Rain = 0
KLA1 092322Z 29012KT 34/M07 A2966 RMK A01 T03391067  RH  007%=      5-min Rain = 0
KLA1 092323Z 28012KT 34/M07 A2966 RMK A01 T03401066  RH  007%=      5-min Rain = 0
KLA1 092324Z 29014KT 34/M07 A2966 RMK A01 T03401068  RH  007%=      5-min Rain = 0
KLA1 092325Z 29011KT 34/M07 A2966 RMK A01 T03401067  RH  007%=      5-min Rain = 0
KLA1 092326Z 30019G24KT 34/M07 A2966 RMK A01 T03401070  RH  007%=      5-min Rain = 0
KLA1 092327Z 30018KT 34/M07 A2967 RMK A01 T03391073  RH  007%=      5-min Rain = 0
KLA1 092328Z 30019G24KT 34/M07 A2967 RMK A01 T03381073  RH  007%=      5-min Rain = 0
KLA1 092329Z 31018KT 34/M08 A2967 RMK A01 T03361075  RH  007%=      5-min Rain = 0
KLA1 092330Z 31016KT 34/M07 A2967 RMK A01 T03361074  RH  007%=      5-min Rain = 0
KLA1 092331Z 31014KT 34/M07 A2967 RMK A01 T03361074  RH  007%=      5-min Rain = 0
KLA1 092332Z 32012G17KT 34/M08 A2967 RMK A01 T03361075  RH  007%=      5-min Rain = 0
KLA1 092333Z 30015KT 34/M08 A2967 RMK A01 T03361075  RH  007%=      5-min Rain = 0
KLA1 092334Z 30013KT 34/M08 A2967 RMK A01 T03361075  RH  007%=      5-min Rain = 0
KLA1 092335Z 32015G21KT 34/M07 A2967 RMK A01 T03361074  RH  007%=      5-min Rain = 0
KLA1 092336Z 32012G18KT 34/M08 A2967 RMK A01 T03361075  RH  007%=      5-min Rain = 0
KLA1 092337Z 32013KT 34/M08 A2967 RMK A01 T03351075  RH  007%=      5-min Rain = 0
KLA1 092338Z 31014KT 34/M07 A2967 RMK A01 T03361072  RH  007%=      5-min Rain = 0
KLA1 092339Z 30015G20KT 34/M07 A2967 RMK A01 T03371073  RH  007%=      5-min Rain = 0
KLA1 092340Z 28014G20KT 34/M07 A2967 RMK A01 T03371072  RH  007%=      5-min Rain = 0
KLA1 092341Z 29015KT 34/M07 A2967 RMK A01 T03371071  RH  007%=      5-min Rain = 0
KLA1 092342Z 27016KT 34/M07 A2967 RMK A01 T03361073  RH  007%=      5-min Rain = 0
KLA1 092343Z 27017KT 34/M07 A2967 RMK A01 T03351074  RH  007%=      5-min Rain = 0
KLA1 092344Z 28013G19KT 33/M08 A2967 RMK A01 T03341075  RH  007%=      5-min Rain = 0
KLA1 092345Z 29012KT 33/M07 A2967 RMK A01 T03331072  RH  007%=      5-min Rain = 0
KLA1 092346Z 28009KT 33/M07 A2967 RMK A01 T03331072  RH  007%=      5-min Rain = 0
KLA1 092347Z 28012KT 33/M07 A2967 RMK A01 T03341070  RH  007%=      5-min Rain = 0
KLA1 092348Z 28015G20KT 33/M07 A2967 RMK A01 T03341072  RH  007%=      5-min Rain = 0
KLA1 092349Z 28014G19KT 33/M07 A2967 RMK A01 T03341073  RH  007%=      5-min Rain = 0
KLA1 092350Z 27016KT 33/M07 A2967 RMK A01 T03331073  RH  007%=      5-min Rain = 0
KLA1 092351Z 29017KT 33/M07 A2967 RMK A01 T03331073  RH  007%=      5-min Rain = 0
KLA1 092352Z 29012KT 33/M07 A2967 RMK A01 T03331072  RH  007%=      5-min Rain = 0
KLA1 092353Z 29017KT 33/M07 A2967 RMK A01 T03321073  RH  007%=      5-min Rain = 0
KLA1 092354Z 29014KT 33/M07 A2967 RMK A01 T03321073  RH  007%=      5-min Rain = 0
KLA1 092355Z 29014KT 33/M07 A2967 RMK A01 T03321074  RH  007%=      5-min Rain = 0
KLA1 092356Z 29016KT 33/M07 A2967 RMK A01 T03311073  RH  007%=      5-min Rain = 0
KLA1 092357Z 29018KT 33/M07 A2968 RMK A01 T03311074  RH  007%=      5-min Rain = 0
KLA1 092358Z 28017KT 33/M07 A2968 RMK A01 T03311074  RH  007%=      5-min Rain = 0
KLA1 092359Z 29014G19KT 33/M08 A2968 RMK A01 T03301075  RH  007%=      5-min Rain = 0
KLA1 100000Z 30014KT 33/M07 A2968 RMK A01 T03301074  RH  007%=      5-min Rain = 0
KLA1 100001Z 30015KT 33/M07 A2968 RMK A01 T03301073  RH  007%=      5-min Rain = 0
KLA1 100002Z 29016KT 33/M08 A2968 RMK A01 T03291075  RH  007%=      5-min Rain = 0
KLA1 100003Z 29013KT 33/M08 A2968 RMK A01 T03291076  RH  007%=      5-min Rain = 0
KLA1 100004Z 29013KT 33/M08 A2968 RMK A01 T03291075  RH  007%=      5-min Rain = 0
KLA1 100005Z 29013KT 33/M08 A2968 RMK A01 T03291075  RH  007%=      5-min Rain = 0
KLA1 100006Z 29012KT 33/M08 A2968 RMK A01 T03281076  RH  007%=      5-min Rain = 0
KLA1 100007Z 27018KT 33/M08 A2968 RMK A01 T03281075  RH  007%=      5-min Rain = 0
KLA1 100008Z 28016KT 33/M08 A2968 RMK A01 T03281075  RH  007%=      5-min Rain = 0
KLA1 100009Z 28015KT 33/M08 A2968 RMK A01 T03281075  RH  007%=      5-min Rain = 0
KLA1 100010Z 28015KT 33/M08 A2968 RMK A01 T03281075  RH  007%=      5-min Rain = 0
KLA1 100011Z 28012KT 33/M08 A2968 RMK A01 T03271075  RH  007%=      5-min Rain = 0
KLA1 100012Z 29013KT 33/M08 A2968 RMK A01 T03271076  RH  007%=      5-min Rain = 0
KLA1 100013Z 29015KT 33/M08 A2968 RMK A01 T03271079  RH  007%=      5-min Rain = 0
KLA1 100014Z 29016KT 33/M08 A2968 RMK A01 T03271081  RH  007%=      5-min Rain = 0
KLA1 100015Z 29015KT 33/M08 A2968 RMK A01 T03261084  RH  007%=      5-min Rain = 0
KLA1 100016Z 28012G17KT 33/M09 A2968 RMK A01 T03251085  RH  007%=      5-min Rain = 0
KLA1 100017Z 29011KT 33/M08 A2968 RMK A01 T03251083  RH  007%=      5-min Rain = 0
KLA1 100018Z 29014KT 33/M08 A2968 RMK A01 T03251083  RH  007%=      5-min Rain = 0
KLA1 100019Z 28015KT 33/M08 A2968 RMK A01 T03251083  RH  007%=      5-min Rain = 0
KLA1 100020Z 28014KT 33/M08 A2968 RMK A01 T03251083  RH  007%=      5-min Rain = 0
KLA1 100021Z 29012KT 33/M09 A2968 RMK A01 T03251085  RH  007%=      5-min Rain = 0
KLA1 100022Z 29011G17KT 33/M09 A2968 RMK A01 T03251085  RH  007%=      5-min Rain = 0
KLA1 100023Z 29011KT 32/M08 A2968 RMK A01 T03241084  RH  007%=      5-min Rain = 0
KLA1 100024Z 29011KT 32/M08 A2968 RMK A01 T03241084  RH  007%=      5-min Rain = 0
KLA1 100025Z 29013KT 32/M09 A2968 RMK A01 T03241085  RH  007%=      5-min Rain = 0
KLA1 100026Z 29011KT 32/M08 A2968 RMK A01 T03231084  RH  007%=      5-min Rain = 0
KLA1 100027Z 28011KT 32/M08 A2968 RMK A01 T03231082  RH  007%=      5-min Rain = 0
KLA1 100028Z 29009KT 32/M08 A2968 RMK A01 T03221083  RH  007%=      5-min Rain = 0
KLA1 100029Z 29010KT 32/M08 A2968 RMK A01 T03221081  RH  007%=      5-min Rain = 0
KLA1 100030Z 29011G16KT 32/M08 A2969 RMK A01 T03221079  RH  007%=      5-min Rain = 0
KLA1 100031Z 28011KT 32/M08 A2969 RMK A01 T03211080  RH  007%=      5-min Rain = 0
KLA1 100032Z 28013KT 32/M08 A2969 RMK A01 T03201081  RH  007%=      5-min Rain = 0
KLA1 100033Z 28014G19KT 32/M08 A2969 RMK A01 T03201080  RH  007%=      5-min Rain = 0
KLA1 100034Z 28013KT 32/M08 A2969 RMK A01 T03201079  RH  007%=      5-min Rain = 0
KLA1 100035Z 28013KT 32/M08 A2969 RMK A01 T03201081  RH  007%=      5-min Rain = 0
KLA1 100036Z 28011KT 32/M08 A2969 RMK A01 T03191082  RH  007%=      5-min Rain = 0
KLA1 100037Z 28010KT 32/M08 A2969 RMK A01 T03191080  RH  007%=      5-min Rain = 0
KLA1 100038Z 27012KT 32/M08 A2969 RMK A01 T03181080  RH  007%=      5-min Rain = 0
KLA1 100039Z 27010KT 32/M08 A2969 RMK A01 T03181080  RH  007%=      5-min Rain = 0
KLA1 100040Z 28011KT 32/M08 A2969 RMK A01 T03181080  RH  007%=      5-min Rain = 0
KLA1 100041Z 28012G17KT 32/M08 A2969 RMK A01 T03171081  RH  007%=      5-min Rain = 0
KLA1 100042Z 28013KT 32/M08 A2969 RMK A01 T03171081  RH  007%=      5-min Rain = 0
KLA1 100043Z 28012KT 32/M08 A2969 RMK A01 T03171082  RH  007%=      5-min Rain = 0
KLA1 100044Z 28011KT 32/M08 A2969 RMK A01 T03161081  RH  007%=      5-min Rain = 0
KLA1 100045Z 27010KT 32/M08 A2969 RMK A01 T03161080  RH  007%=      5-min Rain = 0
KLA1 100046Z 27010KT 32/M08 A2969 RMK A01 T03151080  RH  007%=      5-min Rain = 0
KLA1 100047Z 27010KT 31/M08 A2969 RMK A01 T03141081  RH  007%=      5-min Rain = 0
KLA1 100048Z 27011KT 31/M08 A2969 RMK A01 T03141082  RH  007%=      5-min Rain = 0
KLA1 100049Z 27011KT 31/M08 A2969 RMK A01 T03141082  RH  007%=      5-min Rain = 0
KLA1 100050Z 28010KT 31/M08 A2969 RMK A01 T03141081  RH  007%=      5-min Rain = 0
KLA1 100051Z 27010KT 31/M08 A2969 RMK A01 T03131082  RH  007%=      5-min Rain = 0
KLA1 100052Z 27009KT 31/M08 A2969 RMK A01 T03131082  RH  007%=      5-min Rain = 0
KLA1 100053Z 27009KT 31/M08 A2969 RMK A01 T03121082  RH  007%=      5-min Rain = 0
KLA1 100054Z 28008KT 31/M08 A2969 RMK A01 T03111082  RH  007%=      5-min Rain = 0
KLA1 100055Z 28007KT 31/M08 A2969 RMK A01 T03101080  RH  007%=      5-min Rain = 0
KLA1 100056Z 28008KT 31/M08 A2969 RMK A01 T03091080  RH  007%=      5-min Rain = 0
KLA1 100057Z 29011KT 31/M08 A2969 RMK A01 T03081081  RH  008%=      5-min Rain = 0
KLA1 100058Z 29012KT 31/M09 A2969 RMK A01 T03071089  RH  007%=      5-min Rain = 0
KLA1 100059Z 29012KT 31/M09 A297 RMK A01 T03081091  RH  007%=      5-min Rain = 0
KLA1 100100Z 30008KT 31/M09 A297 RMK A01 T03081094  RH  007%=      5-min Rain = 0
KLA1 100101Z 30009KT 31/M09 A297 RMK A01 T03081090  RH  007%=      5-min Rain = 0
KLA1 100102Z 30009KT 31/M09 A297 RMK A01 T03071092  RH  007%=      5-min Rain = 0
KLA1 100103Z 30007KT 31/M10 A297 RMK A01 T03061095  RH  007%=      5-min Rain = 0
KLA1 100104Z 30008KT 30/M10 A297 RMK A01 T03041097  RH  007%=      5-min Rain = 0
KLA1 100105Z 30007KT 30/M10 A297 RMK A01 T03031099  RH  007%=      5-min Rain = 0
KLA1 100106Z 30007KT 30/M10 A297 RMK A01 T03031101  RH  007%=      5-min Rain = 0
KLA1 100107Z 31008KT 30/M10 A297 RMK A01 T03021101  RH  007%=      5-min Rain = 0
KLA1 100108Z 31006KT 30/M10 A297 RMK A01 T03011103  RH  007%=      5-min Rain = 0
KLA1 100109Z 32005KT 30/M10 A297 RMK A01 T03011102  RH  007%=      5-min Rain = 0
KLA1 100110Z 31006KT 30/M10 A297 RMK A01 T03001102  RH  007%=      5-min Rain = 0
KLA1 100111Z 32005KT 30/M10 A297 RMK A01 T02991103  RH  007%=      5-min Rain = 0
KLA1 100112Z 32006KT 30/M10 A297 RMK A01 T02981104  RH  007%=      5-min Rain = 0
KLA1 100113Z 31007KT 30/M11 A297 RMK A01 T02971106  RH  007%=      5-min Rain = 0
KLA1 100114Z 31006KT 30/M11 A297 RMK A01 T02971107  RH  007%=      5-min Rain = 0
KLA1 100115Z 32006KT 30/M11 A297 RMK A01 T02971105  RH  007%=      5-min Rain = 0
KLA1 100116Z 33005KT 30/M11 A297 RMK A01 T02961107  RH  007%=      5-min Rain = 0
KLA1 100117Z 32005KT 30/M11 A297 RMK A01 T02961109  RH  006%=      5-min Rain = 0
KLA1 100118Z 33004KT 30/M11 A297 RMK A01 T02971109  RH  006%=      5-min Rain = 0
KLA1 100119Z 34004KT 30/M11 A297 RMK A01 T02971109  RH  006%=      5-min Rain = 0
KLA1 100120Z 32003KT 30/M11 A2971 RMK A01 T02971109  RH  006%=      5-min Rain = 0
KLA1 100121Z 32004KT 30/M11 A2971 RMK A01 T02961108  RH  006%=      5-min Rain = 0
KLA1 100122Z 32006KT 30/M11 A2971 RMK A01 T02951107  RH  007%=      5-min Rain = 0
KLA1 100123Z 33005KT 29/M11 A2971 RMK A01 T02941107  RH  007%=      5-min Rain = 0
KLA1 100124Z 33005KT 29/M11 A2971 RMK A01 T02931106  RH  007%=      5-min Rain = 0
KLA1 100125Z 34005KT 29/M11 A2971 RMK A01 T02931108  RH  007%=      5-min Rain = 0
KLA1 100126Z 34005KT 29/M11 A2971 RMK A01 T02931109  RH  007%=      5-min Rain = 0
KLA1 100127Z 34005KT 29/M11 A2971 RMK A01 T02941109  RH  006%=      5-min Rain = 0
KLA1 100128Z 33004KT 30/M11 A2971 RMK A01 T02951109  RH  006%=      5-min Rain = 0
KLA1 100129Z 33004KT 29/M11 A2971 RMK A01 T02941108  RH  007%=      5-min Rain = 0
KLA1 100130Z 33005KT 29/M11 A2971 RMK A01 T02941108  RH  007%=      5-min Rain = 0
KLA1 100131Z 35004KT 29/M11 A2971 RMK A01 T02941108  RH  007%=      5-min Rain = 0
KLA1 100132Z 34004KT 29/M11 A2971 RMK A01 T02931107  RH  007%=      5-min Rain = 0
KLA1 100133Z 34005KT 29/M11 A2971 RMK A01 T02921108  RH  007%=      5-min Rain = 0
KLA1 100134Z 35004KT 29/M11 A2971 RMK A01 T02911107  RH  007%=      5-min Rain = 0
KLA1 100135Z 34004KT 29/M11 A2971 RMK A01 T02921106  RH  007%=      5-min Rain = 0
KLA1 100136Z 34004KT 29/M11 A2971 RMK A01 T02911107  RH  007%=      5-min Rain = 0
KLA1 100137Z 34004KT 29/M11 A2971 RMK A01 T02901107  RH  007%=      5-min Rain = 0
KLA1 100138Z 35004KT 29/M11 A2971 RMK A01 T02901108  RH  007%=      5-min Rain = 0
KLA1 100139Z 34004KT 29/M11 A2971 RMK A01 T02901108  RH  007%=      5-min Rain = 0
KLA1 100140Z 34004KT 29/M11 A2971 RMK A01 T02891108  RH  007%=      5-min Rain = 0
KLA1 100141Z 34004KT 29/M11 A2971 RMK A01 T02891109  RH  007%=      5-min Rain = 0
KLA1 100142Z 33004KT 29/M11 A2971 RMK A01 T02891109  RH  007%=      5-min Rain = 0
KLA1 100143Z 33004KT 29/M11 A2971 RMK A01 T02891109  RH  007%=      5-min Rain = 0
KLA1 100144Z 34005KT 29/M11 A2972 RMK A01 T02891110  RH  007%=      5-min Rain = 0
KLA1 100145Z 34004KT 29/M11 A2972 RMK A01 T02881111  RH  007%=      5-min Rain = 0
KLA1 100146Z 35005KT 29/M11 A2972 RMK A01 T02891110  RH  007%=      5-min Rain = 0
KLA1 100147Z 34004KT 29/M11 A2972 RMK A01 T02891110  RH  007%=      5-min Rain = 0
KLA1 100148Z 35005KT 29/M11 A2972 RMK A01 T02881109  RH  007%=      5-min Rain = 0
KLA1 100149Z 34005KT 29/M11 A2972 RMK A01 T02881109  RH  007%=      5-min Rain = 0
KLA1 100150Z 34005KT 29/M11 A2972 RMK A01 T02871109  RH  007%=      5-min Rain = 0
KLA1 100151Z 33005KT 29/M11 A2972 RMK A01 T02861109  RH  007%=      5-min Rain = 0
KLA1 100152Z 32005KT 29/M11 A2972 RMK A01 T02861110  RH  007%=      5-min Rain = 0
KLA1 100153Z 34004KT 29/M11 A2972 RMK A01 T02871111  RH  007%=      5-min Rain = 0
KLA1 100154Z 34004KT 29/M11 A2972 RMK A01 T02881110  RH  007%=      5-min Rain = 0
KLA1 100155Z 34005KT 29/M11 A2972 RMK A01 T02881109  RH  007%=      5-min Rain = 0
KLA1 100156Z 33005KT 29/M11 A2972 RMK A01 T02871109  RH  007%=      5-min Rain = 0
KLA1 100157Z 35005KT 29/M11 A2972 RMK A01 T02871110  RH  007%=      5-min Rain = 0
KLA1 100158Z 34005KT 29/M11 A2972 RMK A01 T02871112  RH  007%=      5-min Rain = 0
KLA1 100159Z 34004KT 29/M11 A2973 RMK A01 T02881111  RH  007%=      5-min Rain = 0
KLA1 100200Z 34004KT 29/M11 A2973 RMK A01 T02871110  RH  007%=      5-min Rain = 0
KLA1 100201Z 33007KT 29/M11 A2973 RMK A01 T02861111  RH  007%=      5-min Rain = 0
KLA1 100202Z 32005KT 29/M11 A2973 RMK A01 T02861112  RH  007%=      5-min Rain = 0
KLA1 100203Z 35004KT 29/M11 A2973 RMK A01 T02861111  RH  007%=      5-min Rain = 0
KLA1 100204Z 34004KT 29/M11 A2973 RMK A01 T02861112  RH  007%=      5-min Rain = 0
KLA1 100205Z 33005KT 29/M11 A2973 RMK A01 T02861112  RH  007%=      5-min Rain = 0
KLA1 100206Z 33005KT 29/M11 A2973 RMK A01 T02851113  RH  007%=      5-min Rain = 0
KLA1 100207Z 33005KT 29/M11 A2973 RMK A01 T02851113  RH  007%=      5-min Rain = 0
KLA1 100208Z 34005KT 29/M11 A2973 RMK A01 T02851113  RH  007%=      5-min Rain = 0
KLA1 100209Z 34005KT 29/M11 A2973 RMK A01 T02851114  RH  007%=      5-min Rain = 0
KLA1 100210Z 33005KT 29/M11 A2973 RMK A01 T02851114  RH  007%=      5-min Rain = 0
KLA1 100211Z 34005KT 29/M11 A2973 RMK A01 T02851114  RH  007%=      5-min Rain = 0
KLA1 100212Z 34004KT 28/M11 A2973 RMK A01 T02841114  RH  007%=      5-min Rain = 0
KLA1 100213Z 33006KT 28/M11 A2973 RMK A01 T02841114  RH  007%=      5-min Rain = 0
KLA1 100214Z 34004KT 28/M12 A2973 RMK A01 T02841115  RH  007%=      5-min Rain = 0
KLA1 100215Z 33006KT 28/M11 A2973 RMK A01 T02841114  RH  007%=      5-min Rain = 0
KLA1 100216Z 34006KT 28/M11 A2973 RMK A01 T02841114  RH  007%=      5-min Rain = 0
KLA1 100217Z 34005KT 28/M11 A2973 RMK A01 T02831114  RH  007%=      5-min Rain = 0
KLA1 100218Z 34003KT 28/M11 A2973 RMK A01 T02831114  RH  007%=      5-min Rain = 0
KLA1 100219Z 33004KT 28/M11 A2974 RMK A01 T02821113  RH  007%=      5-min Rain = 0
KLA1 100220Z 34004KT 28/M11 A2974 RMK A01 T02811113  RH  007%=      5-min Rain = 0
KLA1 100221Z 33003KT 28/M11 A2974 RMK A01 T02801113  RH  007%=      5-min Rain = 0
KLA1 100222Z 32004KT 28/M11 A2974 RMK A01 T02791114  RH  007%=      5-min Rain = 0
KLA1 100223Z 32004KT 28/M11 A2974 RMK A01 T02791113  RH  007%=      5-min Rain = 0
KLA1 100224Z 32005KT 28/M11 A2974 RMK A01 T02781114  RH  007%=      5-min Rain = 0
KLA1 100225Z 32003KT 28/M11 A2974 RMK A01 T02771114  RH  007%=      5-min Rain = 0
KLA1 100226Z 33004KT 28/M11 A2974 RMK A01 T02771114  RH  007%=      5-min Rain = 0
KLA1 100227Z 32004KT 28/M11 A2974 RMK A01 T02761114  RH  007%=      5-min Rain = 0
KLA1 100228Z 33004KT 28/M11 A2974 RMK A01 T02751114  RH  007%=      5-min Rain = 0
KLA1 100229Z 32003KT 27/M11 A2974 RMK A01 T02741113  RH  007%=      5-min Rain = 0
KLA1 100230Z 32002KT 27/M11 A2974 RMK A01 T02721110  RH  007%=      5-min Rain = 0
KLA1 100231Z 31003KT 27/M11 A2974 RMK A01 T02681109  RH  008%=      5-min Rain = 0
KLA1 100232Z 30003KT 27/M11 A2974 RMK A01 T02651108  RH  008%=      5-min Rain = 0
KLA1 100233Z 30003KT 26/M11 A2974 RMK A01 T02631109  RH  008%=      5-min Rain = 0
KLA1 100234Z 30003KT 26/M11 A2974 RMK A01 T02621110  RH  008%=      5-min Rain = 0
KLA1 100235Z 29003KT 26/M11 A2975 RMK A01 T02621109  RH  008%=      5-min Rain = 0
KLA1 100236Z 29002KT 26/M11 A2975 RMK A01 T02611108  RH  008%=      5-min Rain = 0
KLA1 100237Z 31001KT 26/M11 A2975 RMK A01 T02591107  RH  008%=      5-min Rain = 0
KLA1 100238Z 29001KT 26/M11 A2975 RMK A01 T02561108  RH  008%=      5-min Rain = 0
KLA1 100239Z 29001KT 25/M11 A2975 RMK A01 T02541108  RH  008%=      5-min Rain = 0
KLA1 100240Z 29001KT 25/M11 A2975 RMK A01 T02521108  RH  008%=      5-min Rain = 0
KLA1 100241Z 28001KT 25/M11 A2975 RMK A01 T02511109  RH  008%=      5-min Rain = 0
KLA1 100242Z 30001KT 25/M11 A2975 RMK A01 T02511108  RH  008%=      5-min Rain = 0
KLA1 100243Z 28001KT 25/M11 A2975 RMK A01 T02501108  RH  009%=      5-min Rain = 0
KLA1 100244Z 25000KT 25/M11 A2975 RMK A01 T02491109  RH  008%=      5-min Rain = 0
KLA1 100245Z 26001KT 25/M11 A2975 RMK A01 T02481110  RH  008%=      5-min Rain = 0
KLA1 100246Z 23001KT 25/M11 A2975 RMK A01 T02481110  RH  008%=      5-min Rain = 0
KLA1 100247Z 24002KT 25/M11 A2975 RMK A01 T02491111  RH  008%=      5-min Rain = 0
KLA1 100248Z 24001KT 25/M11 A2975 RMK A01 T02511112  RH  008%=      5-min Rain = 0
KLA1 100249Z 25001KT 25/M11 A2975 RMK A01 T02531113  RH  008%=      5-min Rain = 0
KLA1 100250Z 23000KT 26/M11 A2975 RMK A01 T02551113  RH  008%=      5-min Rain = 0
KLA1 100251Z 23001KT 26/M11 A2975 RMK A01 T02561112  RH  008%=      5-min Rain = 0
KLA1 100252Z 22001KT 26/M11 A2975 RMK A01 T02561111  RH  008%=      5-min Rain = 0
KLA1 100253Z 24001KT 26/M11 A2975 RMK A01 T02561110  RH  008%=      5-min Rain = 0
KLA1 100254Z 27000KT 26/M11 A2975 RMK A01 T02551109  RH  008%=      5-min Rain = 0
KLA1 100255Z 26001KT 25/M11 A2975 RMK A01 T02531110  RH  008%=      5-min Rain = 0
KLA1 100256Z 22002KT 25/M11 A2975 RMK A01 T02521109  RH  008%=      5-min Rain = 0
KLA1 100257Z 23002KT 25/M11 A2975 RMK A01 T02521108  RH  008%=      5-min Rain = 0
KLA1 100258Z 23002KT 25/M11 A2975 RMK A01 T02521107  RH  008%=      5-min Rain = 0
KLA1 100259Z 22002KT 25/M11 A2975 RMK A01 T02531107  RH  008%=      5-min Rain = 0
KLA1 100300Z 24003KT 25/M11 A2975 RMK A01 T02531106  RH  008%=      5-min Rain = 0
KLA1 100301Z 23002KT 25/M11 A2975 RMK A01 T02521106  RH  009%=      5-min Rain = 0
KLA1 100302Z 23002KT 25/M11 A2975 RMK A01 T02521106  RH  009%=      5-min Rain = 0
KLA1 100303Z 24002KT 25/M11 A2975 RMK A01 T02511106  RH  009%=      5-min Rain = 0
KLA1 100304Z 24002KT 25/M11 A2976 RMK A01 T02521106  RH  009%=      5-min Rain = 0
KLA1 100305Z 24003KT 25/M11 A2976 RMK A01 T02531105  RH  009%=      5-min Rain = 0
KLA1 100306Z 24003KT 25/M10 A2976 RMK A01 T02521101  RH  009%=      5-min Rain = 0
KLA1 100307Z 28002KT 25/M10 A2976 RMK A01 T02471104  RH  009%=      5-min Rain = 0
KLA1 100308Z 29002KT 24/M11 A2976 RMK A01 T02431105  RH  009%=      5-min Rain = 0
KLA1 100309Z 28001KT 24/M10 A2976 RMK A01 T02401104  RH  009%=      5-min Rain = 0
KLA1 100310Z 34001KT 24/M10 A2976 RMK A01 T02381104  RH  009%=      5-min Rain = 0
KLA1 100311Z 04002KT 24/M11 A2976 RMK A01 T02381105  RH  009%=      5-min Rain = 0
KLA1 100312Z 03002KT 24/M11 A2976 RMK A01 T02381105  RH  009%=      5-min Rain = 0
KLA1 100313Z 04002KT 24/M10 A2976 RMK A01 T02391103  RH  009%=      5-min Rain = 0
KLA1 100314Z 04001KT 24/M11 A2976 RMK A01 T02361105  RH  010%=      5-min Rain = 0
KLA1 100315Z 04001KT 23/M10 A2976 RMK A01 T02331104  RH  010%=      5-min Rain = 0
KLA1 100316Z 03002KT 23/M10 A2976 RMK A01 T02311102  RH  010%=      5-min Rain = 0
KLA1 100317Z 04003KT 23/M10 A2976 RMK A01 T02311103  RH  010%=      5-min Rain = 0
KLA1 100318Z 06002KT 23/M10 A2976 RMK A01 T02311103  RH  010%=      5-min Rain = 0
KLA1 100319Z 02003KT 23/M10 A2976 RMK A01 T02311102  RH  010%=      5-min Rain = 0
KLA1 100320Z 02003KT 23/M10 A2976 RMK A01 T02291103  RH  010%=      5-min Rain = 0
KLA1 100321Z 01005KT 23/M10 A2977 RMK A01 T02291101  RH  010%=      5-min Rain = 0
KLA1 100322Z 00011KT 23/M10 A2978 RMK A01 T02271101  RH  010%=      5-min Rain = 0
KLA1 100323Z 00009KT 23/M10 A2978 RMK A01 T02261101  RH  010%=      5-min Rain = 0
KLA1 100324Z 35008G13KT 23/M10 A2978 RMK A01 T02271101  RH  010%=      5-min Rain = 0
KLA1 100325Z 35010G16KT 23/M10 A2978 RMK A01 T02341097  RH  010%=      5-min Rain = 0
KLA1 100326Z 04010KT 24/M09 A2978 RMK A01 T02441092  RH  010%=      5-min Rain = 0
KLA1 100327Z 02012G17KT 25/M09 A2978 RMK A01 T02471092  RH  010%=      5-min Rain = 0
KLA1 100328Z 03011G18KT 25/M09 A2978 RMK A01 T02501086  RH  010%=      5-min Rain = 0
KLA1 100329Z 03011KT 25/M08 A2978 RMK A01 T02531079  RH  011%=      5-min Rain = 0
KLA1 100330Z 03011KT 25/M07 A2978 RMK A01 T02541072  RH  011%=      5-min Rain = 0
KLA1 100331Z 02012G17KT 26/M07 A2979 RMK A01 T02551067  RH  011%=      5-min Rain = 0
KLA1 100332Z 02013KT 26/M06 A2979 RMK A01 T02551060  RH  012%=      5-min Rain = 0
KLA1 100333Z 02009G15KT 26/M06 A2979 RMK A01 T02551058  RH  012%=      5-min Rain = 0
KLA1 100334Z 01009KT 25/M06 A2979 RMK A01 T02531060  RH  012%=      5-min Rain = 0
KLA1 100335Z 02008KT 25/M06 A2979 RMK A01 T02521059  RH  012%=      5-min Rain = 0
KLA1 100336Z 02008G13KT 25/M06 A2979 RMK A01 T02511057  RH  013%=      5-min Rain = 0
KLA1 100337Z 02007KT 25/M05 A2979 RMK A01 T02501054  RH  013%=      5-min Rain = 0
KLA1 100338Z 02009G15KT 25/M05 A2979 RMK A01 T02491053  RH  013%=      5-min Rain = 0
KLA1 100339Z 03012KT 25/M05 A2979 RMK A01 T02481049  RH  014%=      5-min Rain = 0
KLA1 100340Z 02010KT 25/M04 A2979 RMK A01 T02481043  RH  014%=      5-min Rain = 0
KLA1 100341Z 02008KT 25/M04 A2979 RMK A01 T02481042  RH  014%=      5-min Rain = 0
KLA1 100342Z 02009KT 25/M04 A2979 RMK A01 T02471041  RH  015%=      5-min Rain = 0
KLA1 100343Z 01012KT 25/M04 A2979 RMK A01 T02471037  RH  015%=      5-min Rain = 0
KLA1 100344Z 02013G18KT 25/M03 A2979 RMK A01 T02461034  RH  015%=      5-min Rain = 0
KLA1 100345Z 01014KT 25/M03 A2979 RMK A01 T02461031  RH  016%=      5-min Rain = 0
KLA1 100346Z 02016KT 25/M03 A2979 RMK A01 T02481029  RH  016%=      5-min Rain = 0
KLA1 100347Z 02013G18KT 25/M03 A2979 RMK A01 T02481028  RH  016%=      5-min Rain = 0
KLA1 100348Z 02012KT 25/M03 A2979 RMK A01 T02481028  RH  016%=      5-min Rain = 0
KLA1 100349Z 03010KT 25/M03 A2979 RMK A01 T02471027  RH  016%=      5-min Rain = 0
KLA1 100350Z 03011G19KT 25/M03 A2979 RMK A01 T02461026  RH  016%=      5-min Rain = 0
KLA1 100351Z 02010KT 25/M02 A2979 RMK A01 T02451024  RH  017%=      5-min Rain = 0
KLA1 100352Z 02012KT 25/M02 A2979 RMK A01 T02451023  RH  017%=      5-min Rain = 0
KLA1 100353Z 02013KT 25/M02 A2979 RMK A01 T02451021  RH  017%=      5-min Rain = 0
KLA1 100354Z 01011G16KT 25/M02 A2979 RMK A01 T02451020  RH  017%=      5-min Rain = 0
KLA1 100355Z 02013KT 25/M02 A2979 RMK A01 T02451018  RH  017%=      5-min Rain = 0
KLA1 100356Z 02010G15KT 25/M02 A2979 RMK A01 T02451017  RH  018%=      5-min Rain = 0
KLA1 100357Z 02009G16KT 25/M02 A2979 RMK A01 T02451016  RH  018%=      5-min Rain = 0
KLA1 100358Z 02010G15KT 24/M02 A2979 RMK A01 T02441015  RH  018%=      5-min Rain = 0
KLA1 100359Z 03008G13KT 25/M01 A2979 RMK A01 T02451014  RH  018%=      5-min Rain = 0
KLA1 100400Z 02011KT 24/M01 A2979 RMK A01 T02441014  RH  018%=      5-min Rain = 0
KLA1 100401Z 02010KT 24/M01 A298 RMK A01 T02431013  RH  018%=      5-min Rain = 0
KLA1 100402Z 03009KT 24/M01 A298 RMK A01 T02431013  RH  018%=      5-min Rain = 0
KLA1 100403Z 03014KT 24/M01 A298 RMK A01 T02431012  RH  018%=      5-min Rain = 0
KLA1 100404Z 02012G19KT 24/M01 A298 RMK A01 T02431011  RH  019%=      5-min Rain = 0
KLA1 100405Z 03013KT 24/M01 A298 RMK A01 T02431010  RH  019%=      5-min Rain = 0
KLA1 100406Z 02011G16KT 24/M01 A298 RMK A01 T02441009  RH  019%=      5-min Rain = 0
KLA1 100407Z 02006G11KT 24/M01 A298 RMK A01 T02441010  RH  019%=      5-min Rain = 0
KLA1 100408Z 01009KT 24/M01 A298 RMK A01 T02431009  RH  019%=      5-min Rain = 0
KLA1 100409Z 02011KT 24/M01 A298 RMK A01 T02421009  RH  019%=      5-min Rain = 0
KLA1 100410Z 02011KT 24/M01 A298 RMK A01 T02421009  RH  019%=      5-min Rain = 0
KLA1 100411Z 02007KT 24/M01 A298 RMK A01 T02421008  RH  019%=      5-min Rain = 0
KLA1 100412Z 03008KT 24/M01 A298 RMK A01 T02411008  RH  019%=      5-min Rain = 0
KLA1 100413Z 02008G13KT 24/M01 A298 RMK A01 T02411007  RH  019%=      5-min Rain = 0
KLA1 100414Z 01008KT 24/M01 A298 RMK A01 T02401007  RH  019%=      5-min Rain = 0
KLA1 100415Z 02007KT 24/M01 A298 RMK A01 T02401006  RH  020%=      5-min Rain = 0
KLA1 100416Z 03007KT 24/M01 A298 RMK A01 T02401006  RH  020%=      5-min Rain = 0
KLA1 100417Z 02008KT 24/M01 A298 RMK A01 T02391005  RH  020%=      5-min Rain = 0
KLA1 100418Z 02009KT 24/M00 A298 RMK A01 T02391004  RH  020%=      5-min Rain = 0
KLA1 100419Z 02009G16KT 24/M00 A2981 RMK A01 T02391004  RH  020%=      5-min Rain = 0
KLA1 100420Z 02008G13KT 24/M00 A2981 RMK A01 T02391004  RH  020%=      5-min Rain = 0
KLA1 100421Z 02011G17KT 24/M00 A298 RMK A01 T02391003  RH  020%=      5-min Rain = 0
KLA1 100422Z 02010KT 24/M00 A298 RMK A01 T02381003  RH  020%=      5-min Rain = 0
KLA1 100423Z 03007G12KT 24/M00 A298 RMK A01 T02391002  RH  020%=      5-min Rain = 0
KLA1 100424Z 03009G14KT 24/M00 A2981 RMK A01 T02391002  RH  020%=      5-min Rain = 0
KLA1 100425Z 02007KT 24/M00 A2981 RMK A01 T02391001  RH  020%=      5-min Rain = 0
KLA1 100426Z 03009KT 24/M00 A2981 RMK A01 T02391001  RH  021%=      5-min Rain = 0
KLA1 100427Z 02012G18KT 24/00 A2981 RMK A01 T023800-0  RH  021%=      5-min Rain = 0
KLA1 100428Z 02011KT 24/00 A2981 RMK A01 T02380000  RH  021%=      5-min Rain = 0
KLA1 100429Z 03009KT 24/00 A2981 RMK A01 T023800-0  RH  021%=      5-min Rain = 0
KLA1 100430Z 03010KT 24/00 A2981 RMK A01 T02380000  RH  021%=      5-min Rain = 0
KLA1 100431Z 02009KT 24/00 A2981 RMK A01 T02380001  RH  021%=      5-min Rain = 0
KLA1 100432Z 03010KT 24/00 A2981 RMK A01 T02370001  RH  021%=      5-min Rain = 0
KLA1 100433Z 03010KT 24/00 A2981 RMK A01 T02370001  RH  021%=      5-min Rain = 0
KLA1 100434Z 02015G21KT 24/00 A2981 RMK A01 T02370001  RH  021%=      5-min Rain = 0
KLA1 100435Z 02009KT 24/00 A2981 RMK A01 T02370002  RH  021%=      5-min Rain = 0
KLA1 100436Z 02010G16KT 24/00 A2981 RMK A01 T02380002  RH  021%=      5-min Rain = 0
KLA1 100437Z 03008KT 24/00 A2981 RMK A01 T02380002  RH  021%=      5-min Rain = 0
KLA1 100438Z 02009KT 24/00 A2981 RMK A01 T02370001  RH  021%=      5-min Rain = 0
KLA1 100439Z 02011KT 24/00 A2981 RMK A01 T02360002  RH  021%=      5-min Rain = 0
KLA1 100440Z 03008G13KT 24/00 A2981 RMK A01 T02360002  RH  021%=      5-min Rain = 0
KLA1 100441Z 03009KT 24/00 A2981 RMK A01 T02360002  RH  021%=      5-min Rain = 0
KLA1 100442Z 03007KT 24/00 A2981 RMK A01 T02350002  RH  021%=      5-min Rain = 0
KLA1 100443Z 03006G11KT 24/00 A2981 RMK A01 T02350002  RH  021%=      5-min Rain = 0
KLA1 100444Z 03010G15KT 24/00 A2981 RMK A01 T02350002  RH  021%=      5-min Rain = 0
KLA1 100445Z 03011G16KT 24/00 A2981 RMK A01 T02350003  RH  022%=      5-min Rain = 0
KLA1 100446Z 03011KT 24/00 A2981 RMK A01 T02350003  RH  022%=      5-min Rain = 0
KLA1 100447Z 03008KT 23/00 A2981 RMK A01 T02340003  RH  022%=      5-min Rain = 0
KLA1 100448Z 03012KT 23/00 A2981 RMK A01 T02340003  RH  022%=      5-min Rain = 0
KLA1 100449Z 03012G17KT 23/00 A2981 RMK A01 T02340003  RH  022%=      5-min Rain = 0
KLA1 100450Z 03013G18KT 23/00 A2982 RMK A01 T02340003  RH  022%=      5-min Rain = 0
KLA1 100451Z 03011KT 23/00 A2981 RMK A01 T02340003  RH  022%=      5-min Rain = 0
KLA1 100452Z 02010KT 23/00 A2981 RMK A01 T02340003  RH  022%=      5-min Rain = 0
KLA1 100453Z 03011KT 23/00 A2981 RMK A01 T02340003  RH  022%=      5-min Rain = 0
KLA1 100454Z 02009G14KT 23/00 A2981 RMK A01 T02340003  RH  022%=      5-min Rain = 0
KLA1 100455Z 01009KT 23/00 A2981 RMK A01 T02330003  RH  022%=      5-min Rain = 0
KLA1 100456Z 02010KT 23/00 A2982 RMK A01 T02320003  RH  022%=      5-min Rain = 0
KLA1 100457Z 01009KT 23/00 A2982 RMK A01 T02310003  RH  022%=      5-min Rain = 0
KLA1 100458Z 01010KT 23/00 A2982 RMK A01 T02300003  RH  022%=      5-min Rain = 0
KLA1 100459Z 01008KT 23/00 A2982 RMK A01 T02310003  RH  022%=      5-min Rain = 0

Page generated in 0.2143 seconds.